ITY63R LIRF-KIAH
Flight info
| Callsign | ITY63R |
|---|---|
| Flight time | N/A |
| Altitude | 40000 |
| Route | PODOX DCT TOBGA DCT DOBIM DCT PIGOS DCT BODRU DCT KOTIT DCT ETREK DCT NOQAS DCT LERGA DCT FOUCO/N0478F340 DCT MANAK UY110 TIRAV UT183 BAGAD DCT AMPOP DCT LULOX DCT LIMRI/M083F350 DCT 53N020W 53N030W 53N040W 52N050W DCT TUDEP/N0487F360 DCT YNA DCT YYY DCT YBG DCT YOW DCT LETAK DCT PEVNI Q806 GGUCE/N0471F380 DCT RINTE DCT TIIDE DCT LITTR DCT CVE DRLLR5 |
| Aircraft | A339/H-SADE1E2E3GHIJ3J5M1P2RWXY/LB2D1 |
Departure
| Time | N/A |
|---|---|
| Airport | Rome–Fiumicino Leonardo da Vinci International Airport (LIRF) |
Arrival
| Time | 2026-05-05 19:06 |
|---|---|
| Airport | George Bush Intercontinental Airport (KIAH) |
| Time | Latitude | Longitude | Altitude | Speed | Heading |
|---|---|---|---|---|---|
| 2026-05-05 08:11 | 45.21529 | 4.29488 | 31881 ft | 464 kts | 271° |
| 2026-05-05 08:12 | 45.22254 | 4.20392 | 31892 ft | 462 kts | 271° |
| 2026-05-05 08:12 | 45.22961 | 4.11330 | 31890 ft | 463 kts | 271° |
| 2026-05-05 08:13 | 45.23664 | 4.02204 | 31883 ft | 465 kts | 272° |
| 2026-05-05 08:13 | 45.24361 | 3.93091 | 31901 ft | 464 kts | 272° |
| 2026-05-05 08:14 | 45.25045 | 3.84033 | 31885 ft | 465 kts | 272° |
| 2026-05-05 08:14 | 45.25863 | 3.74904 | 31892 ft | 468 kts | 276° |
| 2026-05-05 08:15 | 45.27243 | 3.65808 | 31878 ft | 470 kts | 279° |
| 2026-05-05 08:15 | 45.28749 | 3.56795 | 31895 ft | 471 kts | 279° |
| 2026-05-05 08:16 | 45.30257 | 3.47741 | 31900 ft | 472 kts | 279° |
| 2026-05-05 08:16 | 45.31758 | 3.38644 | 31898 ft | 473 kts | 279° |
| 2026-05-05 08:17 | 45.33270 | 3.29440 | 31905 ft | 473 kts | 279° |
| 2026-05-05 08:17 | 45.34748 | 3.20371 | 31911 ft | 473 kts | 279° |
| 2026-05-05 08:18 | 45.36226 | 3.11252 | 31906 ft | 473 kts | 279° |
| 2026-05-05 08:18 | 45.37697 | 3.02136 | 31920 ft | 474 kts | 279° |
| 2026-05-05 08:19 | 45.39164 | 2.92982 | 31906 ft | 475 kts | 279° |
| 2026-05-05 08:19 | 45.40636 | 2.83762 | 31893 ft | 475 kts | 279° |
| 2026-05-05 08:20 | 45.42079 | 2.74651 | 31902 ft | 476 kts | 279° |
| 2026-05-05 08:20 | 45.43534 | 2.65421 | 31883 ft | 477 kts | 279° |
| 2026-05-05 08:21 | 45.44979 | 2.56213 | 31896 ft | 476 kts | 279° |
| 2026-05-05 08:21 | 45.46419 | 2.46977 | 31904 ft | 477 kts | 279° |
| 2026-05-05 08:22 | 45.47847 | 2.37769 | 31914 ft | 478 kts | 279° |
| 2026-05-05 08:22 | 45.49248 | 2.28683 | 31906 ft | 478 kts | 279° |
| 2026-05-05 08:23 | 45.50671 | 2.19403 | 31893 ft | 479 kts | 279° |
| 2026-05-05 08:23 | 45.52087 | 2.10110 | 31898 ft | 479 kts | 279° |
| 2026-05-05 08:24 | 45.53496 | 2.00810 | 31883 ft | 480 kts | 279° |
| 2026-05-05 08:24 | 45.54899 | 1.91500 | 31896 ft | 480 kts | 279° |
| 2026-05-05 08:25 | 45.56289 | 1.82223 | 31918 ft | 480 kts | 279° |
| 2026-05-05 08:25 | 45.57675 | 1.72915 | 31902 ft | 479 kts | 279° |
| 2026-05-05 08:26 | 45.59052 | 1.63606 | 31901 ft | 480 kts | 279° |
| 2026-05-05 08:26 | 45.60434 | 1.54214 | 31897 ft | 481 kts | 279° |
| 2026-05-05 08:27 | 45.61800 | 1.44876 | 31890 ft | 480 kts | 279° |
| 2026-05-05 08:27 | 45.63153 | 1.35569 | 31887 ft | 481 kts | 279° |
| 2026-05-05 08:28 | 45.64508 | 1.26190 | 31913 ft | 481 kts | 278° |
| 2026-05-05 08:28 | 45.65860 | 1.16764 | 31889 ft | 480 kts | 278° |
| 2026-05-05 08:29 | 45.67186 | 1.07461 | 31902 ft | 481 kts | 278° |
| 2026-05-05 08:30 | 45.69187 | 0.93326 | 31888 ft | 481 kts | 278° |
| 2026-05-05 08:30 | 45.70501 | 0.83965 | 31889 ft | 481 kts | 278° |
| 2026-05-05 08:31 | 45.71811 | 0.74574 | 31871 ft | 484 kts | 278° |
| 2026-05-05 08:31 | 45.73140 | 0.64984 | 32028 ft | 490 kts | 278° |
| 2026-05-05 08:31 | 45.73802 | 0.60184 | 32143 ft | 491 kts | 279° |
| 2026-05-05 08:32 | 45.74513 | 0.55416 | 32318 ft | 491 kts | 281° |
| 2026-05-05 08:32 | 45.75392 | 0.50697 | 32500 ft | 491 kts | 284° |
| 2026-05-05 08:32 | 45.76449 | 0.46035 | 32653 ft | 491 kts | 287° |
| 2026-05-05 08:32 | 45.77685 | 0.41450 | 32835 ft | 492 kts | 291° |
| 2026-05-05 08:33 | 45.79086 | 0.36957 | 32993 ft | 492 kts | 293° |
| 2026-05-05 08:33 | 45.80555 | 0.32489 | 33155 ft | 492 kts | 292° |
| 2026-05-05 08:33 | 45.82030 | 0.28043 | 33302 ft | 491 kts | 293° |
| 2026-05-05 08:33 | 45.83496 | 0.23618 | 33444 ft | 491 kts | 292° |
| 2026-05-05 08:34 | 45.84948 | 0.19222 | 33611 ft | 490 kts | 293° |
| 2026-05-05 08:34 | 45.86421 | 0.14738 | 33803 ft | 489 kts | 293° |
| 2026-05-05 08:34 | 45.87856 | 0.10356 | 33895 ft | 489 kts | 292° |
| 2026-05-05 08:35 | 45.90753 | 0.01482 | 33913 ft | 489 kts | 292° |
| 2026-05-05 08:35 | 45.93622 | -0.07344 | 33895 ft | 489 kts | 293° |
| 2026-05-05 08:36 | 45.96489 | -0.16193 | 33906 ft | 489 kts | 293° |
| 2026-05-05 08:36 | 45.99356 | -0.25072 | 33886 ft | 490 kts | 293° |
| 2026-05-05 08:37 | 46.02228 | -0.34000 | 33892 ft | 490 kts | 293° |
| 2026-05-05 08:37 | 46.05095 | -0.42937 | 33912 ft | 491 kts | 293° |
| 2026-05-05 08:38 | 46.07942 | -0.51846 | 33889 ft | 492 kts | 293° |
| 2026-05-05 08:38 | 46.10808 | -0.60850 | 33912 ft | 491 kts | 293° |
| 2026-05-05 08:39 | 46.13645 | -0.69794 | 33906 ft | 492 kts | 292° |
| 2026-05-05 08:39 | 46.16478 | -0.78755 | 33895 ft | 492 kts | 292° |
| 2026-05-05 08:40 | 46.19692 | -0.87543 | 33913 ft | 495 kts | 301° |
| 2026-05-05 08:40 | 46.23729 | -0.95528 | 33918 ft | 497 kts | 309° |
| 2026-05-05 08:41 | 46.28629 | -1.02691 | 33931 ft | 498 kts | 319° |
| 2026-05-05 08:41 | 46.34024 | -1.09023 | 33906 ft | 498 kts | 321° |
| 2026-05-05 08:42 | 46.39462 | -1.15253 | 33939 ft | 499 kts | 321° |
| 2026-05-05 08:42 | 46.44912 | -1.21564 | 33897 ft | 499 kts | 321° |
| 2026-05-05 08:43 | 46.50368 | -1.27920 | 33885 ft | 499 kts | 321° |
| 2026-05-05 08:43 | 46.55785 | -1.34252 | 33882 ft | 499 kts | 321° |
| 2026-05-05 08:44 | 46.61024 | -1.40833 | 33914 ft | 499 kts | 316° |
| 2026-05-05 08:44 | 46.65886 | -1.48051 | 33875 ft | 498 kts | 314° |
| 2026-05-05 08:45 | 46.70683 | -1.55371 | 33886 ft | 499 kts | 314° |
| 2026-05-05 08:45 | 46.75477 | -1.62688 | 33928 ft | 498 kts | 314° |
| 2026-05-05 08:46 | 46.80271 | -1.70001 | 33880 ft | 497 kts | 314° |
| 2026-05-05 08:46 | 46.85066 | -1.77333 | 33896 ft | 497 kts | 314° |
| 2026-05-05 08:47 | 46.89841 | -1.84651 | 33891 ft | 497 kts | 314° |
| 2026-05-05 08:47 | 46.94613 | -1.91990 | 33886 ft | 498 kts | 314° |
| 2026-05-05 08:48 | 46.99379 | -1.99344 | 33902 ft | 499 kts | 314° |
| 2026-05-05 08:48 | 47.04231 | -2.06679 | 33908 ft | 499 kts | 316° |
| 2026-05-05 08:49 | 47.09112 | -2.13881 | 33884 ft | 498 kts | 316° |
| 2026-05-05 08:49 | 47.14041 | -2.21193 | 33893 ft | 497 kts | 315° |
| 2026-05-05 08:50 | 47.18937 | -2.28497 | 33895 ft | 497 kts | 315° |
| 2026-05-05 08:50 | 47.23819 | -2.35811 | 33904 ft | 498 kts | 315° |
| 2026-05-05 08:51 | 47.28676 | -2.43104 | 33922 ft | 498 kts | 315° |
| 2026-05-05 08:51 | 47.33490 | -2.50353 | 33922 ft | 497 kts | 315° |
| 2026-05-05 08:52 | 47.38338 | -2.57675 | 33926 ft | 497 kts | 315° |
| 2026-05-05 08:52 | 47.43150 | -2.64961 | 33926 ft | 497 kts | 315° |
| 2026-05-05 08:53 | 47.48048 | -2.72398 | 33930 ft | 497 kts | 315° |
| 2026-05-05 08:53 | 47.52866 | -2.79739 | 33929 ft | 498 kts | 315° |
| 2026-05-05 08:54 | 47.57700 | -2.87125 | 33925 ft | 497 kts | 315° |
| 2026-05-05 08:54 | 47.62484 | -2.94598 | 33931 ft | 497 kts | 314° |
| 2026-05-05 08:55 | 47.67184 | -3.02075 | 33923 ft | 497 kts | 314° |
| 2026-05-05 08:55 | 47.71912 | -3.09608 | 33934 ft | 497 kts | 314° |
| 2026-05-05 08:56 | 47.76641 | -3.17153 | 33933 ft | 497 kts | 314° |
| 2026-05-05 08:56 | 47.81361 | -3.24712 | 33920 ft | 498 kts | 314° |
| 2026-05-05 08:57 | 47.86085 | -3.32292 | 33922 ft | 497 kts | 314° |
| 2026-05-05 08:57 | 47.90770 | -3.39828 | 33930 ft | 497 kts | 314° |
| 2026-05-05 08:58 | 47.95462 | -3.47397 | 33934 ft | 496 kts | 314° |
| 2026-05-05 08:58 | 48.00147 | -3.54979 | 33914 ft | 496 kts | 314° |
| 2026-05-05 08:59 | 48.04800 | -3.62527 | 33921 ft | 494 kts | 314° |
| 2026-05-05 08:59 | 48.09508 | -3.70186 | 33909 ft | 494 kts | 313° |
| 2026-05-05 09:00 | 48.14158 | -3.77770 | 33927 ft | 493 kts | 313° |
| 2026-05-05 09:00 | 48.18847 | -3.85443 | 33935 ft | 492 kts | 313° |
| 2026-05-05 09:01 | 48.23462 | -3.93018 | 33908 ft | 492 kts | 313° |
| 2026-05-05 09:01 | 48.28115 | -4.00680 | 33942 ft | 492 kts | 313° |
| 2026-05-05 09:02 | 48.32762 | -4.08354 | 33956 ft | 492 kts | 313° |
| 2026-05-05 09:02 | 48.37404 | -4.16037 | 33955 ft | 492 kts | 313° |
| 2026-05-05 09:03 | 48.42010 | -4.23687 | 33967 ft | 492 kts | 313° |
| 2026-05-05 09:03 | 48.46598 | -4.31326 | 33974 ft | 491 kts | 313° |
| 2026-05-05 09:04 | 48.51185 | -4.38988 | 33963 ft | 491 kts | 313° |
| 2026-05-05 09:04 | 48.55761 | -4.46652 | 33977 ft | 491 kts | 313° |
| 2026-05-05 09:05 | 48.60312 | -4.54297 | 33974 ft | 491 kts | 313° |
| 2026-05-05 09:05 | 48.64883 | -4.61999 | 33972 ft | 490 kts | 313° |
| 2026-05-05 09:06 | 48.69410 | -4.69647 | 33964 ft | 490 kts | 312° |
| 2026-05-05 09:06 | 48.73938 | -4.77327 | 33964 ft | 490 kts | 313° |
| 2026-05-05 09:07 | 48.78478 | -4.85043 | 33976 ft | 489 kts | 313° |
| 2026-05-05 09:07 | 48.82962 | -4.92685 | 33972 ft | 488 kts | 312° |
| 2026-05-05 09:08 | 48.87476 | -5.00400 | 33973 ft | 488 kts | 312° |
| 2026-05-05 09:08 | 48.91951 | -5.08074 | 33966 ft | 488 kts | 313° |
| 2026-05-05 09:09 | 48.96449 | -5.15809 | 33978 ft | 488 kts | 313° |
| 2026-05-05 09:09 | 49.00938 | -5.23550 | 33969 ft | 487 kts | 312° |
| 2026-05-05 09:10 | 49.05403 | -5.31276 | 33964 ft | 486 kts | 313° |
| 2026-05-05 09:10 | 49.09854 | -5.39002 | 33959 ft | 485 kts | 313° |
| 2026-05-05 09:11 | 49.14315 | -5.46768 | 33968 ft | 484 kts | 313° |
| 2026-05-05 09:11 | 49.18748 | -5.54501 | 33965 ft | 484 kts | 313° |
| 2026-05-05 09:12 | 49.23155 | -5.62216 | 33973 ft | 484 kts | 313° |
| 2026-05-05 09:12 | 49.27581 | -5.69985 | 33975 ft | 483 kts | 312° |
| 2026-05-05 09:13 | 49.31981 | -5.77738 | 33990 ft | 482 kts | 312° |
| 2026-05-05 09:13 | 49.36378 | -5.85507 | 33991 ft | 482 kts | 312° |
| 2026-05-05 09:14 | 49.40731 | -5.93218 | 33991 ft | 482 kts | 312° |
| 2026-05-05 09:14 | 49.45092 | -6.00967 | 34001 ft | 480 kts | 312° |
| 2026-05-05 09:15 | 49.49446 | -6.08731 | 34002 ft | 479 kts | 312° |
| 2026-05-05 09:15 | 49.53699 | -6.16615 | 34000 ft | 480 kts | 308° |
| 2026-05-05 09:16 | 49.57618 | -6.24901 | 34000 ft | 480 kts | 307° |
| 2026-05-05 09:16 | 49.61487 | -6.33239 | 34005 ft | 480 kts | 307° |
| 2026-05-05 09:17 | 49.65385 | -6.41650 | 34011 ft | 480 kts | 308° |
| 2026-05-05 09:17 | 49.69250 | -6.50000 | 34015 ft | 479 kts | 308° |
| 2026-05-05 09:18 | 49.73094 | -6.58328 | 34020 ft | 478 kts | 308° |
| 2026-05-05 09:18 | 49.76958 | -6.66726 | 34025 ft | 478 kts | 307° |
| 2026-05-05 09:19 | 49.80784 | -6.75066 | 34031 ft | 478 kts | 307° |
| 2026-05-05 09:19 | 49.84595 | -6.83408 | 34032 ft | 478 kts | 308° |
| 2026-05-05 09:20 | 49.88436 | -6.91833 | 34019 ft | 478 kts | 308° |
| 2026-05-05 09:20 | 49.92246 | -7.00210 | 34023 ft | 477 kts | 307° |
| 2026-05-05 09:21 | 49.96041 | -7.08589 | 34023 ft | 477 kts | 308° |
| 2026-05-05 09:21 | 49.99845 | -7.17019 | 34019 ft | 476 kts | 308° |
| 2026-05-05 09:22 | 50.03599 | -7.25361 | 34026 ft | 475 kts | 308° |
| 2026-05-05 09:22 | 50.07372 | -7.33769 | 34042 ft | 476 kts | 308° |
| 2026-05-05 09:23 | 50.11161 | -7.42238 | 34047 ft | 475 kts | 308° |
| 2026-05-05 09:23 | 50.14909 | -7.50640 | 34049 ft | 474 kts | 308° |
| 2026-05-05 09:24 | 50.18665 | -7.59093 | 34048 ft | 474 kts | 308° |
| 2026-05-05 09:24 | 50.22412 | -7.67556 | 34058 ft | 473 kts | 307° |
| 2026-05-05 09:25 | 50.26136 | -7.75992 | 34061 ft | 472 kts | 307° |
| 2026-05-05 09:25 | 50.29835 | -7.84393 | 34066 ft | 473 kts | 307° |
| 2026-05-05 09:26 | 50.33529 | -7.92831 | 34068 ft | 472 kts | 307° |
| 2026-05-05 09:26 | 50.36882 | -8.01627 | 34070 ft | 474 kts | 301° |
| 2026-05-05 09:27 | 50.39679 | -8.11021 | 34077 ft | 475 kts | 296° |
| 2026-05-05 09:27 | 50.42236 | -8.20491 | 34082 ft | 475 kts | 296° |
| 2026-05-05 09:28 | 50.44797 | -8.30042 | 34080 ft | 475 kts | 296° |
| 2026-05-05 09:28 | 50.47345 | -8.39563 | 34082 ft | 474 kts | 296° |
| 2026-05-05 09:29 | 50.49893 | -8.49103 | 34085 ft | 472 kts | 296° |
| 2026-05-05 09:29 | 50.52425 | -8.58610 | 34086 ft | 472 kts | 295° |
| 2026-05-05 09:30 | 50.54940 | -8.68097 | 34086 ft | 472 kts | 295° |
| 2026-05-05 09:30 | 50.57457 | -8.77637 | 34088 ft | 472 kts | 295° |
| 2026-05-05 09:31 | 50.59956 | -8.87142 | 34088 ft | 471 kts | 294° |
| 2026-05-05 09:31 | 50.62448 | -8.96666 | 34090 ft | 470 kts | 294° |
| 2026-05-05 09:32 | 50.64919 | -9.06147 | 34088 ft | 469 kts | 294° |
| 2026-05-05 09:32 | 50.67371 | -9.15589 | 34090 ft | 468 kts | 294° |
| 2026-05-05 09:33 | 50.69825 | -9.25083 | 34090 ft | 468 kts | 294° |
| 2026-05-05 09:33 | 50.72262 | -9.34558 | 34092 ft | 468 kts | 294° |
| 2026-05-05 09:34 | 50.74702 | -9.44073 | 34095 ft | 468 kts | 294° |
| 2026-05-05 09:34 | 50.77129 | -9.53582 | 34098 ft | 467 kts | 294° |
| 2026-05-05 09:35 | 50.79530 | -9.63026 | 34100 ft | 466 kts | 294° |
| 2026-05-05 09:35 | 50.83130 | -9.77262 | 34102 ft | 465 kts | 292° |
| 2026-05-05 09:36 | 50.85525 | -9.86792 | 34104 ft | 464 kts | 292° |
| 2026-05-05 09:36 | 50.87888 | -9.96229 | 34106 ft | 464 kts | 292° |
| 2026-05-05 09:37 | 50.90239 | -10.05657 | 34107 ft | 464 kts | 292° |
| 2026-05-05 09:37 | 50.92607 | -10.15194 | 34108 ft | 464 kts | 292° |
| 2026-05-05 09:38 | 50.94948 | -10.24659 | 34107 ft | 464 kts | 292° |
| 2026-05-05 09:38 | 50.97284 | -10.34151 | 34105 ft | 465 kts | 292° |
| 2026-05-05 09:39 | 50.99627 | -10.43713 | 34107 ft | 464 kts | 292° |
| 2026-05-05 09:39 | 51.01943 | -10.53199 | 34106 ft | 464 kts | 292° |
| 2026-05-05 09:40 | 51.04259 | -10.62739 | 34105 ft | 463 kts | 292° |
| 2026-05-05 09:40 | 51.06560 | -10.72245 | 34106 ft | 463 kts | 292° |
| 2026-05-05 09:41 | 51.08854 | -10.81760 | 34107 ft | 464 kts | 292° |
| 2026-05-05 09:41 | 51.11145 | -10.91313 | 34106 ft | 463 kts | 292° |
| 2026-05-05 09:42 | 51.13435 | -11.00895 | 34110 ft | 463 kts | 292° |
| 2026-05-05 09:42 | 51.15711 | -11.10463 | 34112 ft | 463 kts | 291° |
| 2026-05-05 09:43 | 51.17984 | -11.20065 | 34111 ft | 462 kts | 291° |
| 2026-05-05 09:43 | 51.20235 | -11.29621 | 34113 ft | 462 kts | 291° |
| 2026-05-05 09:44 | 51.22470 | -11.39147 | 34115 ft | 462 kts | 291° |
| 2026-05-05 09:44 | 51.24705 | -11.48720 | 34116 ft | 462 kts | 291° |
| 2026-05-05 09:45 | 51.26946 | -11.58357 | 34119 ft | 461 kts | 291° |
| 2026-05-05 09:45 | 51.29153 | -11.67892 | 34122 ft | 462 kts | 291° |
| 2026-05-05 09:46 | 51.31369 | -11.77509 | 34124 ft | 461 kts | 291° |
| 2026-05-05 09:46 | 51.33563 | -11.87070 | 34125 ft | 461 kts | 291° |
| 2026-05-05 09:47 | 51.35757 | -11.96675 | 34127 ft | 460 kts | 291° |
| 2026-05-05 09:47 | 51.37948 | -12.06316 | 34131 ft | 461 kts | 291° |
| 2026-05-05 09:48 | 51.40108 | -12.15867 | 34132 ft | 460 kts | 291° |
| 2026-05-05 09:48 | 51.42273 | -12.25474 | 34137 ft | 460 kts | 291° |
| 2026-05-05 09:49 | 51.44436 | -12.35121 | 34137 ft | 460 kts | 291° |
| 2026-05-05 09:49 | 51.46576 | -12.44710 | 34136 ft | 459 kts | 291° |
| 2026-05-05 09:50 | 51.48718 | -12.54350 | 34139 ft | 458 kts | 291° |
| 2026-05-05 09:50 | 51.50841 | -12.63955 | 34138 ft | 458 kts | 291° |
| 2026-05-05 09:51 | 51.52956 | -12.73562 | 34139 ft | 458 kts | 290° |
| 2026-05-05 09:51 | 51.55053 | -12.83132 | 34143 ft | 458 kts | 290° |
| 2026-05-05 09:52 | 51.57158 | -12.92782 | 34140 ft | 458 kts | 290° |
| 2026-05-05 09:52 | 51.59240 | -13.02379 | 34142 ft | 457 kts | 290° |
| 2026-05-05 09:53 | 51.61322 | -13.12008 | 34144 ft | 457 kts | 290° |
| 2026-05-05 09:53 | 51.63410 | -13.21713 | 34153 ft | 456 kts | 290° |
| 2026-05-05 09:54 | 51.65479 | -13.31377 | 34159 ft | 456 kts | 290° |
| 2026-05-05 09:54 | 51.67544 | -13.41067 | 34162 ft | 456 kts | 290° |
| 2026-05-05 09:55 | 51.69603 | -13.50784 | 34161 ft | 455 kts | 290° |
| 2026-05-05 09:55 | 51.71662 | -13.60542 | 34163 ft | 455 kts | 290° |
| 2026-05-05 09:56 | 51.73723 | -13.70357 | 34167 ft | 456 kts | 289° |
| 2026-05-05 09:56 | 51.75772 | -13.80167 | 34168 ft | 456 kts | 289° |
| 2026-05-05 09:57 | 51.77802 | -13.89932 | 34172 ft | 455 kts | 289° |
| 2026-05-05 09:57 | 51.79831 | -13.99739 | 34171 ft | 454 kts | 289° |
| 2026-05-05 09:58 | 51.81843 | -14.09503 | 34172 ft | 454 kts | 289° |
| 2026-05-05 09:58 | 51.83853 | -14.19313 | 34172 ft | 455 kts | 289° |
| 2026-05-05 09:59 | 51.85852 | -14.29128 | 34175 ft | 454 kts | 289° |
| 2026-05-05 09:59 | 51.87822 | -14.38840 | 34177 ft | 454 kts | 289° |
| 2026-05-05 10:00 | 51.89810 | -14.48690 | 34179 ft | 454 kts | 289° |
| 2026-05-05 10:00 | 51.91790 | -14.58549 | 34180 ft | 454 kts | 289° |
| 2026-05-05 10:01 | 51.93762 | -14.68419 | 34184 ft | 454 kts | 288° |
| 2026-05-05 10:01 | 51.95736 | -14.78347 | 34185 ft | 453 kts | 288° |
| 2026-05-05 10:02 | 51.97694 | -14.88257 | 34186 ft | 453 kts | 288° |
| 2026-05-05 10:02 | 51.99664 | -14.98270 | 34189 ft | 454 kts | 289° |
| 2026-05-05 10:03 | 52.01843 | -15.08191 | 34192 ft | 453 kts | 290° |
| 2026-05-05 10:03 | 52.04068 | -15.18062 | 34193 ft | 453 kts | 290° |
| 2026-05-05 10:04 | 52.06282 | -15.27942 | 34192 ft | 452 kts | 290° |
| 2026-05-05 10:04 | 52.08487 | -15.37845 | 34193 ft | 452 kts | 290° |
| 2026-05-05 10:05 | 52.10674 | -15.47712 | 34196 ft | 451 kts | 290° |
| 2026-05-05 10:05 | 52.12825 | -15.57469 | 34199 ft | 451 kts | 290° |
| 2026-05-05 10:06 | 52.14954 | -15.67177 | 34203 ft | 451 kts | 289° |
| 2026-05-05 10:06 | 52.17101 | -15.77014 | 34203 ft | 451 kts | 289° |
| 2026-05-05 10:07 | 52.19243 | -15.86865 | 34205 ft | 451 kts | 289° |
| 2026-05-05 10:07 | 52.21361 | -15.96663 | 34206 ft | 450 kts | 289° |
| 2026-05-05 10:08 | 52.23475 | -16.06486 | 34207 ft | 450 kts | 289° |
| 2026-05-05 10:08 | 52.25591 | -16.16361 | 34211 ft | 450 kts | 289° |
| 2026-05-05 10:09 | 52.27696 | -16.26231 | 34214 ft | 449 kts | 289° |
| 2026-05-05 10:09 | 52.29787 | -16.36095 | 34216 ft | 450 kts | 289° |
| 2026-05-05 10:10 | 52.31875 | -16.45988 | 34214 ft | 450 kts | 289° |
| 2026-05-05 10:10 | 52.33953 | -16.55878 | 34220 ft | 450 kts | 289° |
| 2026-05-05 10:11 | 52.36008 | -16.65708 | 34219 ft | 450 kts | 288° |
| 2026-05-05 10:11 | 52.38033 | -16.75443 | 34222 ft | 449 kts | 288° |
| 2026-05-05 10:12 | 52.40060 | -16.85242 | 34222 ft | 450 kts | 288° |
| 2026-05-05 10:12 | 52.42040 | -16.94853 | 34222 ft | 450 kts | 288° |
| 2026-05-05 10:13 | 52.44036 | -17.04590 | 34223 ft | 450 kts | 288° |
| 2026-05-05 10:13 | 52.46040 | -17.14415 | 34223 ft | 450 kts | 288° |
| 2026-05-05 10:14 | 52.48026 | -17.24197 | 34224 ft | 450 kts | 288° |
| 2026-05-05 10:14 | 52.50044 | -17.34192 | 34223 ft | 450 kts | 287° |
| 2026-05-05 10:15 | 52.52022 | -17.44038 | 34226 ft | 450 kts | 287° |
| 2026-05-05 10:15 | 52.53966 | -17.53765 | 34222 ft | 450 kts | 287° |
| 2026-05-05 10:16 | 52.55922 | -17.63598 | 34225 ft | 450 kts | 287° |
| 2026-05-05 10:16 | 52.57867 | -17.73432 | 34232 ft | 451 kts | 287° |
| 2026-05-05 10:17 | 52.59802 | -17.83254 | 34226 ft | 451 kts | 287° |
| 2026-05-05 10:17 | 52.61742 | -17.93154 | 34228 ft | 451 kts | 286° |
| 2026-05-05 10:18 | 52.63654 | -18.02963 | 34225 ft | 451 kts | 286° |
| 2026-05-05 10:18 | 52.65572 | -18.12860 | 34232 ft | 451 kts | 286° |
| 2026-05-05 10:19 | 52.67466 | -18.22675 | 34222 ft | 451 kts | 286° |
| 2026-05-05 10:19 | 52.69363 | -18.32564 | 34229 ft | 451 kts | 286° |
| 2026-05-05 10:20 | 52.71232 | -18.42355 | 34234 ft | 451 kts | 286° |
| 2026-05-05 10:20 | 52.73106 | -18.52221 | 34236 ft | 451 kts | 286° |
| 2026-05-05 10:21 | 52.74976 | -18.62111 | 34224 ft | 451 kts | 286° |
| 2026-05-05 10:21 | 52.76815 | -18.71902 | 34244 ft | 451 kts | 285° |
| 2026-05-05 10:22 | 52.78653 | -18.81751 | 34251 ft | 450 kts | 285° |
| 2026-05-05 10:22 | 52.80481 | -18.91587 | 34237 ft | 450 kts | 285° |
| 2026-05-05 10:23 | 52.82304 | -19.01440 | 34233 ft | 450 kts | 285° |
| 2026-05-05 10:23 | 52.84122 | -19.11324 | 34228 ft | 450 kts | 285° |
| 2026-05-05 10:24 | 52.85934 | -19.21231 | 34225 ft | 451 kts | 285° |
| 2026-05-05 10:24 | 52.87738 | -19.31139 | 34237 ft | 450 kts | 285° |
| 2026-05-05 10:25 | 52.89529 | -19.41027 | 34238 ft | 450 kts | 285° |
| 2026-05-05 10:25 | 52.91320 | -19.50981 | 34248 ft | 450 kts | 285° |
| 2026-05-05 10:26 | 52.93092 | -19.60876 | 34237 ft | 450 kts | 285° |
| 2026-05-05 10:26 | 52.94870 | -19.70857 | 34236 ft | 449 kts | 285° |
| 2026-05-05 10:27 | 52.96625 | -19.80768 | 34225 ft | 449 kts | 285° |
| 2026-05-05 10:27 | 52.98365 | -19.90698 | 34235 ft | 449 kts | 284° |
| 2026-05-05 10:28 | 52.99704 | -20.00721 | 34230 ft | 449 kts | 278° |
| 2026-05-05 10:28 | 53.00439 | -20.10974 | 34239 ft | 449 kts | 274° |
| 2026-05-05 10:29 | 53.00866 | -20.21316 | 34231 ft | 448 kts | 274° |
| 2026-05-05 10:29 | 53.01271 | -20.31583 | 34242 ft | 448 kts | 274° |
| 2026-05-05 10:30 | 53.01675 | -20.41975 | 34230 ft | 447 kts | 274° |
| 2026-05-05 10:30 | 53.02068 | -20.52302 | 34236 ft | 447 kts | 274° |
| 2026-05-05 10:31 | 53.02451 | -20.62614 | 34239 ft | 447 kts | 274° |
| 2026-05-05 10:31 | 53.02826 | -20.72927 | 34231 ft | 447 kts | 273° |
| 2026-05-05 10:32 | 53.03191 | -20.83238 | 34245 ft | 448 kts | 273° |
| 2026-05-05 10:32 | 53.03549 | -20.93589 | 34245 ft | 448 kts | 273° |
| 2026-05-05 10:33 | 53.04222 | -21.13765 | 34246 ft | 448 kts | 274° |
| 2026-05-05 10:34 | 53.04553 | -21.24077 | 34242 ft | 448 kts | 274° |
| 2026-05-05 10:34 | 53.04874 | -21.34380 | 34245 ft | 448 kts | 274° |
| 2026-05-05 10:35 | 53.05184 | -21.44663 | 34243 ft | 449 kts | 274° |
| 2026-05-05 10:35 | 53.05490 | -21.55027 | 34251 ft | 449 kts | 274° |
| 2026-05-05 10:36 | 53.05784 | -21.65341 | 34256 ft | 448 kts | 273° |
| 2026-05-05 10:36 | 53.06069 | -21.75675 | 34257 ft | 449 kts | 274° |
| 2026-05-05 10:37 | 53.06348 | -21.86019 | 34263 ft | 449 kts | 274° |
| 2026-05-05 10:37 | 53.06642 | -21.97385 | 34262 ft | 449 kts | 274° |
| 2026-05-05 10:38 | 53.06900 | -22.07729 | 34262 ft | 449 kts | 274° |
| 2026-05-05 10:38 | 53.07151 | -22.18105 | 34247 ft | 449 kts | 274° |
| 2026-05-05 10:39 | 53.07391 | -22.28431 | 34258 ft | 451 kts | 274° |
| 2026-05-05 10:39 | 53.07624 | -22.38850 | 34274 ft | 451 kts | 274° |
| 2026-05-05 10:40 | 53.07847 | -22.49215 | 34273 ft | 450 kts | 274° |
| 2026-05-05 10:40 | 53.08059 | -22.59529 | 34266 ft | 450 kts | 274° |
| 2026-05-05 10:41 | 53.08263 | -22.69882 | 34257 ft | 451 kts | 273° |
| 2026-05-05 10:41 | 53.08461 | -22.80305 | 34274 ft | 452 kts | 273° |
| 2026-05-05 10:42 | 53.08740 | -22.95905 | 34270 ft | 453 kts | 273° |
| 2026-05-05 10:43 | 53.08913 | -23.06348 | 34272 ft | 453 kts | 273° |
| 2026-05-05 10:43 | 53.09076 | -23.16729 | 34274 ft | 452 kts | 274° |
| 2026-05-05 10:44 | 53.09235 | -23.27189 | 34275 ft | 452 kts | 274° |
| 2026-05-05 10:44 | 53.09383 | -23.37571 | 34282 ft | 452 kts | 274° |
| 2026-05-05 10:45 | 53.09521 | -23.47999 | 34279 ft | 453 kts | 274° |
| 2026-05-05 10:45 | 53.09650 | -23.58416 | 34281 ft | 454 kts | 274° |
| 2026-05-05 10:46 | 53.09770 | -23.68910 | 34282 ft | 454 kts | 272° |
| 2026-05-05 10:46 | 53.09882 | -23.79414 | 34287 ft | 456 kts | 272° |
| 2026-05-05 10:47 | 53.09982 | -23.89868 | 34286 ft | 456 kts | 272° |
| 2026-05-05 10:47 | 53.10075 | -24.00375 | 34294 ft | 457 kts | 272° |
| 2026-05-05 10:48 | 53.10157 | -24.10909 | 34293 ft | 456 kts | 273° |
| 2026-05-05 10:48 | 53.10231 | -24.21450 | 34293 ft | 456 kts | 273° |
| 2026-05-05 10:49 | 53.10297 | -24.31946 | 34289 ft | 456 kts | 273° |
| 2026-05-05 10:49 | 53.10353 | -24.42440 | 34294 ft | 457 kts | 273° |
| 2026-05-05 10:50 | 53.10399 | -24.53014 | 34294 ft | 457 kts | 273° |
| 2026-05-05 10:50 | 53.10435 | -24.63486 | 34294 ft | 458 kts | 273° |
| 2026-05-05 10:51 | 53.10463 | -24.74040 | 34291 ft | 458 kts | 272° |
| 2026-05-05 10:51 | 53.10482 | -24.84623 | 34296 ft | 458 kts | 272° |
| 2026-05-05 10:52 | 53.10491 | -24.95149 | 34292 ft | 458 kts | 272° |
| 2026-05-05 10:52 | 53.10491 | -25.05710 | 34297 ft | 458 kts | 272° |
| 2026-05-05 10:53 | 53.10481 | -25.16318 | 34302 ft | 458 kts | 272° |
| 2026-05-05 10:53 | 53.10463 | -25.26817 | 34304 ft | 459 kts | 272° |
| 2026-05-05 10:54 | 53.10434 | -25.37451 | 34312 ft | 459 kts | 272° |
| 2026-05-05 10:54 | 53.10397 | -25.47965 | 34314 ft | 458 kts | 272° |
| 2026-05-05 10:55 | 53.10350 | -25.58557 | 34315 ft | 458 kts | 272° |
| 2026-05-05 10:55 | 53.10294 | -25.69059 | 34312 ft | 457 kts | 271° |
| 2026-05-05 10:56 | 53.10228 | -25.79595 | 34311 ft | 458 kts | 272° |
| 2026-05-05 10:56 | 53.10153 | -25.90187 | 34315 ft | 458 kts | 272° |
| 2026-05-05 10:57 | 53.10068 | -26.00754 | 34310 ft | 458 kts | 272° |
| 2026-05-05 10:57 | 53.09975 | -26.11277 | 34317 ft | 458 kts | 272° |
| 2026-05-05 10:58 | 53.09872 | -26.21792 | 34306 ft | 458 kts | 272° |
| 2026-05-05 10:58 | 53.09759 | -26.32377 | 34305 ft | 458 kts | 272° |
| 2026-05-05 10:59 | 53.09639 | -26.42858 | 34307 ft | 457 kts | 272° |
| 2026-05-05 10:59 | 53.09508 | -26.53399 | 34310 ft | 457 kts | 272° |
| 2026-05-05 11:00 | 53.09368 | -26.63947 | 34309 ft | 458 kts | 272° |
| 2026-05-05 11:00 | 53.09218 | -26.74495 | 34308 ft | 458 kts | 272° |
| 2026-05-05 11:01 | 53.09062 | -26.84999 | 34308 ft | 458 kts | 272° |
| 2026-05-05 11:01 | 53.08894 | -26.95538 | 34308 ft | 457 kts | 272° |
| 2026-05-05 11:02 | 53.08715 | -27.06084 | 34311 ft | 457 kts | 272° |
| 2026-05-05 11:02 | 53.08527 | -27.16593 | 34318 ft | 457 kts | 272° |
| 2026-05-05 11:03 | 53.08332 | -27.27134 | 34326 ft | 456 kts | 272° |
| 2026-05-05 11:03 | 53.08128 | -27.37640 | 34333 ft | 456 kts | 272° |
| 2026-05-05 11:04 | 53.07914 | -27.48140 | 34335 ft | 456 kts | 272° |
| 2026-05-05 11:04 | 53.07691 | -27.58640 | 34334 ft | 456 kts | 272° |
| 2026-05-05 11:05 | 53.07459 | -27.69121 | 34338 ft | 456 kts | 272° |
| 2026-05-05 11:05 | 53.07218 | -27.79610 | 34330 ft | 456 kts | 272° |
| 2026-05-05 11:06 | 53.06968 | -27.90046 | 34333 ft | 455 kts | 272° |
| 2026-05-05 11:06 | 53.06709 | -28.00509 | 34337 ft | 455 kts | 272° |
| 2026-05-05 11:07 | 53.06441 | -28.10982 | 34311 ft | 455 kts | 272° |
| 2026-05-05 11:07 | 53.06164 | -28.21428 | 34322 ft | 454 kts | 272° |
| 2026-05-05 11:08 | 53.05878 | -28.31887 | 34318 ft | 454 kts | 272° |
| 2026-05-05 11:08 | 53.05582 | -28.42357 | 34321 ft | 454 kts | 272° |
| 2026-05-05 11:09 | 53.05278 | -28.52776 | 34320 ft | 454 kts | 273° |
| 2026-05-05 11:09 | 53.04964 | -28.63212 | 34321 ft | 454 kts | 273° |
| 2026-05-05 11:10 | 53.04642 | -28.73636 | 34311 ft | 454 kts | 272° |
| 2026-05-05 11:10 | 53.04311 | -28.84016 | 34322 ft | 453 kts | 272° |
| 2026-05-05 11:11 | 53.03969 | -28.94458 | 34312 ft | 454 kts | 272° |
| 2026-05-05 11:11 | 53.03619 | -29.04909 | 34326 ft | 454 kts | 272° |
| 2026-05-05 11:12 | 53.03261 | -29.15316 | 34334 ft | 452 kts | 272° |
| 2026-05-05 11:12 | 53.02895 | -29.25690 | 34327 ft | 452 kts | 272° |
| 2026-05-05 11:13 | 53.02519 | -29.36079 | 34325 ft | 453 kts | 272° |
| 2026-05-05 11:13 | 53.02135 | -29.46447 | 34316 ft | 453 kts | 272° |
| 2026-05-05 11:14 | 53.01738 | -29.56884 | 34334 ft | 453 kts | 272° |
| 2026-05-05 11:14 | 53.01336 | -29.67238 | 34337 ft | 453 kts | 271° |
| 2026-05-05 11:15 | 53.00922 | -29.77641 | 34323 ft | 453 kts | 271° |
| 2026-05-05 11:15 | 53.00498 | -29.88026 | 34330 ft | 453 kts | 271° |
| 2026-05-05 11:16 | 53.00159 | -29.98434 | 34323 ft | 450 kts | 275° |
| 2026-05-05 11:16 | 53.00364 | -30.08772 | 34320 ft | 449 kts | 279° |
| 2026-05-05 11:17 | 53.00785 | -30.19072 | 34318 ft | 449 kts | 279° |
| 2026-05-05 11:17 | 53.01203 | -30.29419 | 34313 ft | 449 kts | 279° |
| 2026-05-05 11:18 | 53.01607 | -30.39698 | 34316 ft | 448 kts | 279° |
| 2026-05-05 11:18 | 53.02004 | -30.49999 | 34309 ft | 448 kts | 279° |
| 2026-05-05 11:19 | 53.02389 | -30.60293 | 34317 ft | 448 kts | 279° |
| 2026-05-05 11:19 | 53.02766 | -30.70636 | 34315 ft | 448 kts | 278° |
| 2026-05-05 11:20 | 53.03131 | -30.80919 | 34300 ft | 448 kts | 278° |
| 2026-05-05 11:20 | 53.03487 | -30.91192 | 34302 ft | 448 kts | 278° |
| 2026-05-05 11:21 | 53.03836 | -31.01520 | 34300 ft | 448 kts | 277° |
| 2026-05-05 11:21 | 53.04178 | -31.11838 | 34301 ft | 448 kts | 277° |
| 2026-05-05 11:22 | 53.04510 | -31.22108 | 34296 ft | 449 kts | 277° |
| 2026-05-05 11:22 | 53.04834 | -31.32442 | 34284 ft | 449 kts | 277° |
| 2026-05-05 11:23 | 53.05148 | -31.42776 | 34284 ft | 449 kts | 277° |
| 2026-05-05 11:23 | 53.05454 | -31.53133 | 34287 ft | 450 kts | 277° |
| 2026-05-05 11:24 | 53.05751 | -31.63455 | 34290 ft | 450 kts | 277° |
| 2026-05-05 11:24 | 53.06038 | -31.73801 | 34280 ft | 450 kts | 276° |
| 2026-05-05 11:25 | 53.06317 | -31.84180 | 34291 ft | 450 kts | 276° |
| 2026-05-05 11:25 | 53.06588 | -31.94535 | 34295 ft | 451 kts | 276° |
| 2026-05-05 11:26 | 53.06848 | -32.04875 | 34292 ft | 451 kts | 275° |
| 2026-05-05 11:26 | 53.07103 | -32.15301 | 34296 ft | 451 kts | 275° |
| 2026-05-05 11:27 | 53.07348 | -32.25704 | 34293 ft | 452 kts | 275° |
| 2026-05-05 11:27 | 53.07583 | -32.36111 | 34289 ft | 453 kts | 275° |
| 2026-05-05 11:28 | 53.07808 | -32.46556 | 34286 ft | 452 kts | 274° |
| 2026-05-05 11:28 | 53.08025 | -32.56973 | 34282 ft | 452 kts | 274° |
| 2026-05-05 11:29 | 53.08232 | -32.67392 | 34280 ft | 453 kts | 273° |
| 2026-05-05 11:29 | 53.08432 | -32.77806 | 34278 ft | 453 kts | 273° |
| 2026-05-05 11:30 | 53.08624 | -32.88254 | 34277 ft | 454 kts | 273° |
| 2026-05-05 11:30 | 53.08806 | -32.98709 | 34273 ft | 454 kts | 273° |
| 2026-05-05 11:31 | 53.08979 | -33.09243 | 34272 ft | 455 kts | 272° |
| 2026-05-05 11:31 | 53.09141 | -33.19651 | 34267 ft | 455 kts | 272° |
| 2026-05-05 11:32 | 53.09295 | -33.30129 | 34266 ft | 455 kts | 272° |
| 2026-05-05 11:32 | 53.09443 | -33.40682 | 34259 ft | 455 kts | 272° |
| 2026-05-05 11:33 | 53.09579 | -33.51161 | 34251 ft | 456 kts | 272° |
| 2026-05-05 11:33 | 53.09705 | -33.61672 | 34245 ft | 457 kts | 271° |
| 2026-05-05 11:34 | 53.09824 | -33.72288 | 34240 ft | 458 kts | 271° |
| 2026-05-05 11:34 | 53.09932 | -33.82847 | 34241 ft | 459 kts | 270° |
| 2026-05-05 11:35 | 53.10031 | -33.93431 | 34235 ft | 461 kts | 270° |
| 2026-05-05 11:35 | 53.10120 | -34.04049 | 34233 ft | 462 kts | 270° |
| 2026-05-05 11:36 | 53.10204 | -34.14743 | 34231 ft | 462 kts | 270° |
| 2026-05-05 11:36 | 53.10277 | -34.25411 | 34226 ft | 462 kts | 270° |
| 2026-05-05 11:37 | 53.10341 | -34.36077 | 34221 ft | 463 kts | 270° |
| 2026-05-05 11:37 | 53.10393 | -34.46737 | 34218 ft | 464 kts | 269° |
| 2026-05-05 11:38 | 53.10434 | -34.57450 | 34212 ft | 466 kts | 269° |
| 2026-05-05 11:38 | 53.10468 | -34.68214 | 34211 ft | 467 kts | 268° |
| 2026-05-05 11:39 | 53.10492 | -34.78984 | 34206 ft | 468 kts | 268° |
| 2026-05-05 11:39 | 53.10506 | -34.89765 | 34201 ft | 470 kts | 268° |
| 2026-05-05 11:40 | 53.10510 | -35.00666 | 34197 ft | 472 kts | 268° |
| 2026-05-05 11:40 | 53.10505 | -35.11539 | 34197 ft | 474 kts | 268° |
| 2026-05-05 11:41 | 53.10487 | -35.22469 | 34189 ft | 476 kts | 268° |
| 2026-05-05 11:41 | 53.10461 | -35.33458 | 34182 ft | 477 kts | 268° |
| 2026-05-05 11:42 | 53.10426 | -35.44519 | 34179 ft | 478 kts | 267° |
| 2026-05-05 11:42 | 53.10380 | -35.55525 | 34167 ft | 479 kts | 267° |
| 2026-05-05 11:43 | 53.10323 | -35.66667 | 34162 ft | 481 kts | 266° |
| 2026-05-05 11:43 | 53.10256 | -35.77734 | 34155 ft | 482 kts | 266° |
| 2026-05-05 11:44 | 53.10178 | -35.88852 | 34157 ft | 484 kts | 266° |
| 2026-05-05 11:44 | 53.10088 | -36.00012 | 34142 ft | 486 kts | 266° |
| 2026-05-05 11:45 | 53.09990 | -36.11231 | 34135 ft | 487 kts | 266° |
| 2026-05-05 11:45 | 53.09881 | -36.22496 | 34126 ft | 489 kts | 266° |
| 2026-05-05 11:46 | 53.09761 | -36.33780 | 34121 ft | 490 kts | 265° |
| 2026-05-05 11:46 | 53.09626 | -36.45130 | 34114 ft | 492 kts | 265° |
| 2026-05-05 11:47 | 53.09483 | -36.56449 | 34109 ft | 493 kts | 265° |
| 2026-05-05 11:47 | 53.09330 | -36.67830 | 34103 ft | 494 kts | 264° |
| 2026-05-05 11:48 | 53.09077 | -36.84937 | 34099 ft | 495 kts | 264° |
| 2026-05-05 11:48 | 53.08893 | -36.96362 | 34095 ft | 496 kts | 264° |
| 2026-05-05 11:49 | 53.08701 | -37.07742 | 34090 ft | 496 kts | 264° |
| 2026-05-05 11:49 | 53.08495 | -37.19245 | 34083 ft | 497 kts | 264° |
| 2026-05-05 11:50 | 53.08281 | -37.30711 | 34082 ft | 498 kts | 263° |
| 2026-05-05 11:50 | 53.08052 | -37.42223 | 34083 ft | 498 kts | 263° |
| 2026-05-05 11:51 | 53.07812 | -37.53716 | 34080 ft | 498 kts | 263° |
| 2026-05-05 11:51 | 53.07564 | -37.65202 | 34079 ft | 499 kts | 262° |
| 2026-05-05 11:52 | 53.07302 | -37.76723 | 34083 ft | 499 kts | 262° |
| 2026-05-05 11:52 | 53.07028 | -37.88239 | 34084 ft | 499 kts | 262° |
| 2026-05-05 11:53 | 53.06745 | -37.99746 | 34080 ft | 498 kts | 262° |
| 2026-05-05 11:53 | 53.06449 | -38.11234 | 34071 ft | 499 kts | 262° |
| 2026-05-05 11:54 | 53.06144 | -38.22716 | 34070 ft | 499 kts | 262° |
| 2026-05-05 11:54 | 53.05825 | -38.34216 | 34059 ft | 498 kts | 262° |
| 2026-05-05 11:55 | 53.05499 | -38.45652 | 34061 ft | 498 kts | 262° |
| 2026-05-05 11:55 | 53.05163 | -38.57100 | 34051 ft | 496 kts | 262° |
| 2026-05-05 11:56 | 53.04815 | -38.68520 | 34061 ft | 493 kts | 261° |
| 2026-05-05 11:56 | 53.04459 | -38.79826 | 34041 ft | 491 kts | 261° |
| 2026-05-05 11:57 | 53.04095 | -38.91096 | 34061 ft | 490 kts | 261° |
| 2026-05-05 11:57 | 53.03718 | -39.02391 | 34040 ft | 489 kts | 261° |
| 2026-05-05 11:58 | 53.03333 | -39.13618 | 34067 ft | 490 kts | 261° |
| 2026-05-05 11:58 | 53.02939 | -39.24906 | 34058 ft | 488 kts | 261° |
| 2026-05-05 11:59 | 53.02534 | -39.36095 | 34064 ft | 487 kts | 261° |
| 2026-05-05 11:59 | 53.02118 | -39.47299 | 34067 ft | 487 kts | 261° |
| 2026-05-05 12:00 | 53.01691 | -39.58467 | 34065 ft | 486 kts | 261° |
| 2026-05-05 12:00 | 53.01254 | -39.69617 | 34063 ft | 486 kts | 260° |
| 2026-05-05 12:01 | 53.00807 | -39.80767 | 34058 ft | 485 kts | 260° |
| 2026-05-05 12:01 | 53.00349 | -39.91878 | 34053 ft | 484 kts | 260° |
| 2026-05-05 12:02 | 52.99867 | -40.02995 | 34038 ft | 480 kts | 259° |
| 2026-05-05 12:02 | 52.99251 | -40.13978 | 34032 ft | 480 kts | 259° |
| 2026-05-05 12:03 | 52.98601 | -40.24987 | 34042 ft | 480 kts | 259° |
| 2026-05-05 12:03 | 52.97949 | -40.35954 | 34030 ft | 480 kts | 259° |
| 2026-05-05 12:04 | 52.97293 | -40.46893 | 34035 ft | 481 kts | 259° |
| 2026-05-05 12:04 | 52.96620 | -40.57991 | 34040 ft | 480 kts | 259° |
| 2026-05-05 12:05 | 52.95943 | -40.68960 | 34014 ft | 481 kts | 258° |
| 2026-05-05 12:05 | 52.95256 | -40.79948 | 34023 ft | 479 kts | 258° |
| 2026-05-05 12:06 | 52.94564 | -40.90853 | 34030 ft | 480 kts | 258° |
| 2026-05-05 12:06 | 52.93848 | -41.01894 | 34023 ft | 481 kts | 258° |
| 2026-05-05 12:07 | 52.93127 | -41.12895 | 34032 ft | 480 kts | 258° |
| 2026-05-05 12:07 | 52.92403 | -41.23835 | 34034 ft | 480 kts | 259° |
| 2026-05-05 12:08 | 52.91666 | -41.34790 | 34036 ft | 479 kts | 259° |
| 2026-05-05 12:08 | 52.90917 | -41.45773 | 34028 ft | 479 kts | 259° |
| 2026-05-05 12:09 | 52.90155 | -41.56775 | 34031 ft | 479 kts | 259° |
| 2026-05-05 12:09 | 52.89388 | -41.67730 | 34028 ft | 478 kts | 258° |
| 2026-05-05 12:10 | 52.88617 | -41.78576 | 34021 ft | 478 kts | 258° |
| 2026-05-05 12:10 | 52.87832 | -41.89478 | 34017 ft | 477 kts | 258° |
| 2026-05-05 12:11 | 52.87044 | -42.00303 | 34022 ft | 475 kts | 258° |
| 2026-05-05 12:11 | 52.86246 | -42.11120 | 34018 ft | 476 kts | 258° |
| 2026-05-05 12:12 | 52.85433 | -42.21989 | 34016 ft | 477 kts | 258° |
| 2026-05-05 12:12 | 52.84613 | -42.32798 | 34006 ft | 477 kts | 258° |
| 2026-05-05 12:13 | 52.83783 | -42.43631 | 34009 ft | 476 kts | 258° |
| 2026-05-05 12:13 | 52.82942 | -42.54459 | 34004 ft | 477 kts | 259° |
| 2026-05-05 12:14 | 52.82093 | -42.65272 | 34008 ft | 476 kts | 258° |
| 2026-05-05 12:14 | 52.81238 | -42.76031 | 34008 ft | 476 kts | 258° |
| 2026-05-05 12:15 | 52.80369 | -42.86835 | 34009 ft | 476 kts | 258° |
| 2026-05-05 12:15 | 52.79491 | -42.97628 | 34000 ft | 475 kts | 258° |
| 2026-05-05 12:16 | 52.78598 | -43.08470 | 34002 ft | 476 kts | 258° |
| 2026-05-05 12:16 | 52.77703 | -43.19226 | 34001 ft | 475 kts | 258° |
| 2026-05-05 12:17 | 52.76797 | -43.29976 | 33997 ft | 475 kts | 258° |
| 2026-05-05 12:17 | 52.75879 | -43.40754 | 33992 ft | 474 kts | 258° |
| 2026-05-05 12:18 | 52.74953 | -43.51510 | 33980 ft | 474 kts | 258° |
| 2026-05-05 12:18 | 52.74019 | -43.62237 | 33970 ft | 475 kts | 258° |
| 2026-05-05 12:19 | 52.73074 | -43.72986 | 33962 ft | 475 kts | 257° |
| 2026-05-05 12:19 | 52.72121 | -43.83709 | 33963 ft | 474 kts | 257° |
| 2026-05-05 12:20 | 52.71152 | -43.94488 | 33957 ft | 475 kts | 257° |
| 2026-05-05 12:20 | 52.70185 | -44.05133 | 33952 ft | 475 kts | 257° |
| 2026-05-05 12:21 | 52.69202 | -44.15853 | 33941 ft | 475 kts | 257° |
| 2026-05-05 12:21 | 52.68210 | -44.26564 | 33940 ft | 474 kts | 257° |
| 2026-05-05 12:22 | 52.67209 | -44.37265 | 33935 ft | 474 kts | 257° |
| 2026-05-05 12:22 | 52.66198 | -44.47958 | 33929 ft | 474 kts | 257° |
| 2026-05-05 12:23 | 52.65179 | -44.58621 | 33925 ft | 473 kts | 257° |
| 2026-05-05 12:23 | 52.64152 | -44.69271 | 33925 ft | 473 kts | 256° |
| 2026-05-05 12:24 | 52.63114 | -44.79937 | 33925 ft | 472 kts | 257° |
| 2026-05-05 12:24 | 52.62072 | -44.90535 | 33918 ft | 473 kts | 256° |
| 2026-05-05 12:25 | 52.61009 | -45.01241 | 33915 ft | 473 kts | 256° |
| 2026-05-05 12:25 | 52.59948 | -45.11823 | 33909 ft | 472 kts | 256° |
| 2026-05-05 12:26 | 52.58873 | -45.22442 | 33906 ft | 472 kts | 257° |
| 2026-05-05 12:26 | 52.57785 | -45.33097 | 33900 ft | 472 kts | 257° |
| 2026-05-05 12:27 | 52.56694 | -45.43695 | 33898 ft | 472 kts | 257° |
| 2026-05-05 12:27 | 52.55590 | -45.54313 | 33888 ft | 472 kts | 257° |
| 2026-05-05 12:28 | 52.54478 | -45.64899 | 33880 ft | 473 kts | 257° |
| 2026-05-05 12:28 | 52.53356 | -45.75503 | 33879 ft | 472 kts | 256° |
| 2026-05-05 12:29 | 52.52228 | -45.86058 | 33862 ft | 473 kts | 256° |
| 2026-05-05 12:29 | 52.51082 | -45.96697 | 33860 ft | 473 kts | 256° |
| 2026-05-05 12:30 | 52.49931 | -46.07275 | 33851 ft | 473 kts | 256° |
| 2026-05-05 12:30 | 52.48769 | -46.17876 | 33850 ft | 473 kts | 256° |
| 2026-05-05 12:31 | 52.47600 | -46.28453 | 33843 ft | 473 kts | 256° |
| 2026-05-05 12:31 | 52.46418 | -46.39045 | 33841 ft | 473 kts | 256° |
| 2026-05-05 12:32 | 52.45234 | -46.49565 | 33835 ft | 473 kts | 256° |
| 2026-05-05 12:32 | 52.44036 | -46.60104 | 33831 ft | 473 kts | 256° |
| 2026-05-05 12:33 | 52.42829 | -46.70644 | 33833 ft | 473 kts | 256° |
| 2026-05-05 12:33 | 52.41612 | -46.81211 | 33833 ft | 472 kts | 255° |
| 2026-05-05 12:34 | 52.40392 | -46.91708 | 33824 ft | 472 kts | 255° |
| 2026-05-05 12:34 | 52.39150 | -47.02298 | 33825 ft | 472 kts | 256° |
| 2026-05-05 12:35 | 52.37903 | -47.12839 | 33828 ft | 471 kts | 256° |
| 2026-05-05 12:35 | 52.36644 | -47.23412 | 33812 ft | 471 kts | 256° |
| 2026-05-05 12:36 | 52.35385 | -47.33893 | 33808 ft | 470 kts | 255° |
| 2026-05-05 12:36 | 52.34108 | -47.44415 | 33801 ft | 471 kts | 256° |
| 2026-05-05 12:37 | 52.32819 | -47.54968 | 33797 ft | 470 kts | 256° |
| 2026-05-05 12:37 | 52.31524 | -47.65487 | 33792 ft | 470 kts | 255° |
| 2026-05-05 12:38 | 52.30235 | -47.75876 | 33786 ft | 469 kts | 255° |
| 2026-05-05 12:38 | 52.28941 | -47.86241 | 33784 ft | 469 kts | 255° |
| 2026-05-05 12:39 | 52.27632 | -47.96635 | 33775 ft | 469 kts | 255° |
| 2026-05-05 12:39 | 52.26313 | -48.07034 | 33772 ft | 469 kts | 255° |
| 2026-05-05 12:40 | 52.24986 | -48.17418 | 33766 ft | 469 kts | 255° |
| 2026-05-05 12:40 | 52.23656 | -48.27752 | 33762 ft | 470 kts | 255° |
| 2026-05-05 12:41 | 52.22307 | -48.38148 | 33762 ft | 470 kts | 255° |
| 2026-05-05 12:41 | 52.20945 | -48.48571 | 33756 ft | 470 kts | 255° |
| 2026-05-05 12:42 | 52.19580 | -48.58941 | 33746 ft | 470 kts | 255° |
| 2026-05-05 12:42 | 52.18213 | -48.69247 | 33737 ft | 470 kts | 255° |
| 2026-05-05 12:43 | 52.16824 | -48.79652 | 33734 ft | 470 kts | 255° |
| 2026-05-05 12:43 | 52.15432 | -48.90004 | 33722 ft | 470 kts | 255° |
| 2026-05-05 12:44 | 52.14030 | -49.00356 | 33719 ft | 470 kts | 255° |
| 2026-05-05 12:44 | 52.12623 | -49.10670 | 33720 ft | 470 kts | 255° |
| 2026-05-05 12:45 | 52.11195 | -49.21065 | 33720 ft | 471 kts | 255° |
| 2026-05-05 12:45 | 52.09764 | -49.31388 | 33720 ft | 471 kts | 255° |
| 2026-05-05 12:46 | 52.08328 | -49.41698 | 33715 ft | 471 kts | 255° |
| 2026-05-05 12:46 | 52.06871 | -49.52082 | 33709 ft | 471 kts | 255° |
| 2026-05-05 12:47 | 52.05413 | -49.62397 | 33704 ft | 471 kts | 255° |
| 2026-05-05 12:47 | 52.03952 | -49.72669 | 33696 ft | 470 kts | 254° |
| 2026-05-05 12:48 | 52.02473 | -49.82977 | 33688 ft | 470 kts | 254° |
| 2026-05-05 12:48 | 52.00983 | -49.93281 | 33680 ft | 470 kts | 253° |
| 2026-05-05 12:49 | 51.99165 | -50.03348 | 33675 ft | 467 kts | 248° |
| 2026-05-05 12:49 | 51.96849 | -50.13154 | 33670 ft | 467 kts | 246° |
| 2026-05-05 12:50 | 51.94490 | -50.22934 | 33667 ft | 468 kts | 246° |
| 2026-05-05 12:50 | 51.92122 | -50.32697 | 33662 ft | 468 kts | 246° |
| 2026-05-05 12:51 | 51.89739 | -50.42483 | 33649 ft | 468 kts | 247° |
| 2026-05-05 12:51 | 51.87338 | -50.52294 | 33653 ft | 467 kts | 247° |
| 2026-05-05 12:52 | 51.84942 | -50.62040 | 33646 ft | 467 kts | 247° |
| 2026-05-05 12:52 | 51.82542 | -50.71763 | 33647 ft | 467 kts | 246° |
| 2026-05-05 12:53 | 51.80129 | -50.81497 | 33638 ft | 467 kts | 246° |
| 2026-05-05 12:53 | 51.77718 | -50.91177 | 33634 ft | 468 kts | 246° |
| 2026-05-05 12:54 | 51.74077 | -51.05718 | 33635 ft | 468 kts | 246° |
| 2026-05-05 12:55 | 51.71616 | -51.15493 | 33638 ft | 468 kts | 246° |
| 2026-05-05 12:55 | 51.69156 | -51.25221 | 33637 ft | 467 kts | 246° |
| 2026-05-05 12:56 | 51.66698 | -51.34898 | 33651 ft | 468 kts | 246° |
| 2026-05-05 12:56 | 51.65450 | -51.39794 | 33814 ft | 469 kts | 246° |
| 2026-05-05 12:56 | 51.64215 | -51.44631 | 34076 ft | 467 kts | 246° |
| 2026-05-05 12:56 | 51.62980 | -51.49457 | 34323 ft | 465 kts | 246° |
| 2026-05-05 12:57 | 51.61751 | -51.54246 | 34531 ft | 465 kts | 246° |
| 2026-05-05 12:57 | 51.60521 | -51.59031 | 34723 ft | 464 kts | 246° |
| 2026-05-05 12:57 | 51.59304 | -51.63755 | 34903 ft | 464 kts | 246° |
| 2026-05-05 12:57 | 51.58073 | -51.68527 | 35083 ft | 464 kts | 246° |
| 2026-05-05 12:58 | 51.56824 | -51.73356 | 35246 ft | 464 kts | 246° |
| 2026-05-05 12:58 | 51.55589 | -51.78121 | 35388 ft | 464 kts | 246° |
| 2026-05-05 12:58 | 51.54350 | -51.82892 | 35516 ft | 465 kts | 246° |
| 2026-05-05 12:59 | 51.51858 | -51.92459 | 35604 ft | 466 kts | 246° |
| 2026-05-05 12:59 | 51.49361 | -52.02003 | 35616 ft | 466 kts | 246° |
| 2026-05-05 13:00 | 51.45607 | -52.16269 | 35607 ft | 465 kts | 246° |
| 2026-05-05 13:01 | 51.40569 | -52.35281 | 35610 ft | 465 kts | 246° |
| 2026-05-05 13:01 | 51.38022 | -52.44836 | 35608 ft | 465 kts | 246° |
| 2026-05-05 13:02 | 51.35496 | -52.54268 | 35602 ft | 465 kts | 246° |
| 2026-05-05 13:02 | 51.32947 | -52.63752 | 35597 ft | 465 kts | 246° |
| 2026-05-05 13:03 | 51.30388 | -52.73228 | 35600 ft | 464 kts | 245° |
| 2026-05-05 13:03 | 51.27828 | -52.82668 | 35597 ft | 463 kts | 245° |
| 2026-05-05 13:04 | 51.25259 | -52.92105 | 35596 ft | 463 kts | 246° |
| 2026-05-05 13:04 | 51.22701 | -53.01452 | 35592 ft | 463 kts | 246° |
| 2026-05-05 13:05 | 51.20137 | -53.10826 | 35593 ft | 462 kts | 247° |
| 2026-05-05 13:05 | 51.17938 | -53.20462 | 35593 ft | 463 kts | 252° |
| 2026-05-05 13:06 | 51.16339 | -53.30349 | 35597 ft | 464 kts | 258° |
| 2026-05-05 13:06 | 51.15337 | -53.40464 | 35587 ft | 464 kts | 262° |
| 2026-05-05 13:07 | 51.14532 | -53.50706 | 35589 ft | 464 kts | 262° |
| 2026-05-05 13:07 | 51.13728 | -53.60880 | 35574 ft | 463 kts | 262° |
| 2026-05-05 13:08 | 51.12915 | -53.71024 | 35568 ft | 462 kts | 261° |
| 2026-05-05 13:08 | 51.12091 | -53.81185 | 35573 ft | 462 kts | 261° |
| 2026-05-05 13:09 | 51.11264 | -53.91255 | 35562 ft | 463 kts | 262° |
| 2026-05-05 13:09 | 51.10423 | -54.01403 | 35571 ft | 463 kts | 262° |
| 2026-05-05 13:10 | 51.09570 | -54.11578 | 35577 ft | 463 kts | 262° |
| 2026-05-05 13:10 | 51.08717 | -54.21651 | 35578 ft | 462 kts | 262° |
| 2026-05-05 13:11 | 51.07851 | -54.31762 | 35579 ft | 462 kts | 262° |
| 2026-05-05 13:11 | 51.06979 | -54.41843 | 35571 ft | 462 kts | 262° |
| 2026-05-05 13:12 | 51.06094 | -54.51982 | 35559 ft | 462 kts | 262° |
| 2026-05-05 13:12 | 51.05204 | -54.62055 | 35549 ft | 462 kts | 262° |
| 2026-05-05 13:13 | 51.04297 | -54.72210 | 35557 ft | 462 kts | 261° |
| 2026-05-05 13:13 | 51.03388 | -54.82281 | 35556 ft | 462 kts | 261° |
| 2026-05-05 13:14 | 51.02470 | -54.92377 | 35556 ft | 462 kts | 261° |
| 2026-05-05 13:14 | 51.01549 | -55.02401 | 35558 ft | 462 kts | 261° |
| 2026-05-05 13:15 | 51.00611 | -55.12511 | 35561 ft | 462 kts | 261° |
| 2026-05-05 13:15 | 50.99676 | -55.22500 | 35571 ft | 461 kts | 261° |
| 2026-05-05 13:16 | 50.98727 | -55.32539 | 35565 ft | 461 kts | 261° |
| 2026-05-05 13:16 | 50.97768 | -55.42574 | 35555 ft | 461 kts | 261° |
| 2026-05-05 13:17 | 50.96801 | -55.52625 | 35542 ft | 460 kts | 261° |
| 2026-05-05 13:17 | 50.95828 | -55.62630 | 35561 ft | 460 kts | 261° |
| 2026-05-05 13:18 | 50.94848 | -55.72619 | 35557 ft | 460 kts | 261° |
| 2026-05-05 13:18 | 50.93853 | -55.82657 | 35554 ft | 459 kts | 261° |
| 2026-05-05 13:19 | 50.92855 | -55.92643 | 35545 ft | 459 kts | 261° |
| 2026-05-05 13:19 | 50.91849 | -56.02622 | 35549 ft | 458 kts | 261° |
| 2026-05-05 13:20 | 50.90836 | -56.12587 | 35548 ft | 459 kts | 261° |
| 2026-05-05 13:20 | 50.89813 | -56.22541 | 35541 ft | 458 kts | 261° |
| 2026-05-05 13:21 | 50.88778 | -56.32546 | 35527 ft | 458 kts | 261° |
| 2026-05-05 13:21 | 50.87738 | -56.42501 | 35547 ft | 459 kts | 261° |
| 2026-05-05 13:22 | 50.86691 | -56.52452 | 35528 ft | 458 kts | 261° |
| 2026-05-05 13:22 | 50.85637 | -56.62365 | 35544 ft | 458 kts | 261° |
| 2026-05-05 13:23 | 50.84563 | -56.72403 | 35545 ft | 458 kts | 260° |
| 2026-05-05 13:23 | 50.83495 | -56.82297 | 35555 ft | 458 kts | 260° |
| 2026-05-05 13:24 | 50.82410 | -56.92245 | 35553 ft | 458 kts | 260° |
| 2026-05-05 13:24 | 50.81327 | -57.02104 | 35546 ft | 459 kts | 260° |
| 2026-05-05 13:25 | 50.80229 | -57.12016 | 35555 ft | 459 kts | 260° |
| 2026-05-05 13:25 | 50.79120 | -57.21948 | 35554 ft | 459 kts | 260° |
| 2026-05-05 13:26 | 50.78000 | -57.31900 | 35574 ft | 457 kts | 260° |
| 2026-05-05 13:26 | 50.76886 | -57.41738 | 35574 ft | 457 kts | 260° |
| 2026-05-05 13:27 | 50.75759 | -57.51609 | 35573 ft | 456 kts | 260° |
| 2026-05-05 13:27 | 50.74628 | -57.61417 | 35577 ft | 457 kts | 260° |
| 2026-05-05 13:28 | 50.73483 | -57.71282 | 35583 ft | 457 kts | 260° |
| 2026-05-05 13:28 | 50.72332 | -57.81120 | 35593 ft | 456 kts | 260° |
| 2026-05-05 13:29 | 50.71182 | -57.90881 | 35594 ft | 457 kts | 260° |
| 2026-05-05 13:29 | 50.70013 | -58.00724 | 35594 ft | 457 kts | 260° |
| 2026-05-05 13:30 | 50.68838 | -58.10538 | 35613 ft | 457 kts | 260° |
| 2026-05-05 13:30 | 50.67660 | -58.20300 | 35606 ft | 456 kts | 260° |
| 2026-05-05 13:31 | 50.66471 | -58.30086 | 35606 ft | 455 kts | 260° |
| 2026-05-05 13:31 | 50.65277 | -58.39852 | 35599 ft | 455 kts | 260° |
| 2026-05-05 13:32 | 50.64082 | -58.49549 | 35603 ft | 455 kts | 260° |
| 2026-05-05 13:32 | 50.62873 | -58.59288 | 35601 ft | 454 kts | 260° |
| 2026-05-05 13:33 | 50.61652 | -58.69057 | 35594 ft | 454 kts | 260° |
| 2026-05-05 13:33 | 50.60430 | -58.78750 | 35605 ft | 453 kts | 260° |
| 2026-05-05 13:34 | 50.59201 | -58.88439 | 35607 ft | 453 kts | 260° |
| 2026-05-05 13:34 | 50.57972 | -58.98063 | 35598 ft | 452 kts | 260° |
| 2026-05-05 13:35 | 50.56728 | -59.07731 | 35609 ft | 452 kts | 260° |
| 2026-05-05 13:35 | 50.55478 | -59.17379 | 35622 ft | 452 kts | 260° |
| 2026-05-05 13:36 | 50.54219 | -59.27033 | 35620 ft | 451 kts | 260° |
| 2026-05-05 13:36 | 50.52948 | -59.36702 | 35622 ft | 450 kts | 260° |
| 2026-05-05 13:37 | 50.51673 | -59.46344 | 35620 ft | 450 kts | 260° |
| 2026-05-05 13:37 | 50.50393 | -59.55954 | 35623 ft | 450 kts | 260° |
| 2026-05-05 13:38 | 50.49105 | -59.65564 | 35619 ft | 449 kts | 259° |
| 2026-05-05 13:38 | 50.47805 | -59.75199 | 35626 ft | 449 kts | 259° |
| 2026-05-05 13:39 | 50.46500 | -59.84803 | 35638 ft | 448 kts | 259° |
| 2026-05-05 13:39 | 50.45192 | -59.94368 | 35639 ft | 447 kts | 260° |
| 2026-05-05 13:40 | 50.43886 | -60.03866 | 35647 ft | 447 kts | 260° |
| 2026-05-05 13:40 | 50.42574 | -60.13330 | 35646 ft | 445 kts | 260° |
| 2026-05-05 13:41 | 50.41247 | -60.22850 | 35636 ft | 444 kts | 260° |
| 2026-05-05 13:41 | 50.39905 | -60.32417 | 35630 ft | 444 kts | 260° |
| 2026-05-05 13:42 | 50.38566 | -60.41895 | 35638 ft | 444 kts | 260° |
| 2026-05-05 13:42 | 50.37206 | -60.51467 | 35649 ft | 444 kts | 260° |
| 2026-05-05 13:43 | 50.35863 | -60.60855 | 35646 ft | 443 kts | 260° |
| 2026-05-05 13:43 | 50.34493 | -60.70374 | 35646 ft | 443 kts | 259° |
| 2026-05-05 13:44 | 50.33129 | -60.79800 | 35654 ft | 442 kts | 259° |
| 2026-05-05 13:44 | 50.31764 | -60.89170 | 35652 ft | 441 kts | 259° |
| 2026-05-05 13:45 | 50.30395 | -60.98510 | 35664 ft | 440 kts | 259° |
| 2026-05-05 13:45 | 50.29022 | -61.07806 | 35659 ft | 440 kts | 259° |
| 2026-05-05 13:46 | 50.27639 | -61.17130 | 35653 ft | 440 kts | 260° |
| 2026-05-05 13:46 | 50.26257 | -61.26398 | 35660 ft | 437 kts | 260° |
| 2026-05-05 13:47 | 50.24858 | -61.35709 | 35663 ft | 438 kts | 260° |
| 2026-05-05 13:47 | 50.23468 | -61.44908 | 35664 ft | 437 kts | 260° |
| 2026-05-05 13:48 | 50.22061 | -61.54167 | 35684 ft | 436 kts | 260° |
| 2026-05-05 13:48 | 50.20656 | -61.63333 | 35686 ft | 436 kts | 260° |
| 2026-05-05 13:49 | 50.19233 | -61.72582 | 35693 ft | 435 kts | 259° |
| 2026-05-05 13:49 | 50.17621 | -61.81699 | 35684 ft | 437 kts | 255° |
| 2026-05-05 13:50 | 50.15737 | -61.90686 | 35701 ft | 435 kts | 256° |
| 2026-05-05 13:50 | 50.13847 | -61.99646 | 35676 ft | 435 kts | 256° |
| 2026-05-05 13:51 | 50.11956 | -62.08566 | 35683 ft | 435 kts | 256° |
| 2026-05-05 13:51 | 50.10061 | -62.17453 | 35685 ft | 434 kts | 256° |
| 2026-05-05 13:52 | 50.08159 | -62.26337 | 35684 ft | 433 kts | 256° |
| 2026-05-05 13:52 | 50.06235 | -62.35273 | 35674 ft | 434 kts | 256° |
| 2026-05-05 13:53 | 50.04327 | -62.44114 | 35681 ft | 434 kts | 256° |
| 2026-05-05 13:53 | 50.02401 | -62.52986 | 35674 ft | 434 kts | 256° |
| 2026-05-05 13:54 | 50.00471 | -62.61835 | 35683 ft | 433 kts | 256° |
| 2026-05-05 13:54 | 49.98520 | -62.70752 | 35693 ft | 433 kts | 255° |
| 2026-05-05 13:55 | 49.96586 | -62.79563 | 35694 ft | 432 kts | 255° |
| 2026-05-05 13:55 | 49.94643 | -62.88358 | 35701 ft | 432 kts | 255° |
| 2026-05-05 13:56 | 49.92689 | -62.97171 | 35708 ft | 432 kts | 255° |
| 2026-05-05 13:56 | 49.90736 | -63.05939 | 35696 ft | 431 kts | 255° |
| 2026-05-05 13:57 | 49.88779 | -63.14695 | 35700 ft | 429 kts | 255° |
| 2026-05-05 13:57 | 49.86816 | -63.23439 | 35697 ft | 429 kts | 255° |
| 2026-05-05 13:58 | 49.84860 | -63.32119 | 35692 ft | 428 kts | 256° |
| 2026-05-05 13:58 | 49.82885 | -63.40840 | 35699 ft | 429 kts | 256° |
| 2026-05-05 13:59 | 49.79910 | -63.53907 | 35683 ft | 427 kts | 256° |
| 2026-05-05 14:00 | 49.77274 | -63.65448 | 35698 ft | 426 kts | 255° |
| 2026-05-05 14:00 | 49.74948 | -63.75564 | 35686 ft | 425 kts | 255° |
| 2026-05-05 14:01 | 49.72945 | -63.84239 | 35695 ft | 424 kts | 255° |
| 2026-05-05 14:01 | 49.70964 | -63.92778 | 35680 ft | 422 kts | 255° |
| 2026-05-05 14:02 | 49.68971 | -64.01335 | 35690 ft | 421 kts | 255° |
| 2026-05-05 14:02 | 49.66998 | -64.09777 | 35681 ft | 420 kts | 255° |
| 2026-05-05 14:03 | 49.65011 | -64.18245 | 35678 ft | 419 kts | 255° |
| 2026-05-05 14:03 | 49.63020 | -64.26689 | 35676 ft | 420 kts | 255° |
| 2026-05-05 14:04 | 49.61034 | -64.35077 | 35672 ft | 419 kts | 255° |
| 2026-05-05 14:04 | 49.59034 | -64.43496 | 35679 ft | 419 kts | 256° |
| 2026-05-05 14:05 | 49.57030 | -64.51894 | 35676 ft | 418 kts | 255° |
| 2026-05-05 14:05 | 49.55024 | -64.60282 | 35678 ft | 418 kts | 255° |
| 2026-05-05 14:06 | 49.53001 | -64.68687 | 35490 ft | 419 kts | 255° |
| 2026-05-05 14:06 | 49.50977 | -64.77090 | 35617 ft | 418 kts | 254° |
| 2026-05-05 14:07 | 49.48966 | -64.85401 | 35645 ft | 419 kts | 254° |
| 2026-05-05 14:07 | 49.46913 | -64.93842 | 35651 ft | 419 kts | 254° |
| 2026-05-05 14:08 | 49.44870 | -65.02221 | 35643 ft | 419 kts | 254° |
| 2026-05-05 14:08 | 49.42839 | -65.10523 | 35656 ft | 419 kts | 254° |
| 2026-05-05 14:09 | 49.40780 | -65.18894 | 35665 ft | 418 kts | 254° |
| 2026-05-05 14:09 | 49.38735 | -65.27178 | 35673 ft | 418 kts | 254° |
| 2026-05-05 14:10 | 49.36668 | -65.35532 | 35661 ft | 417 kts | 254° |
| 2026-05-05 14:10 | 49.34614 | -65.43786 | 35658 ft | 418 kts | 253° |
| 2026-05-05 14:11 | 49.32759 | -65.51231 | 35668 ft | 417 kts | 253° |
| 2026-05-05 14:12 | 49.28818 | -65.66947 | 35656 ft | 416 kts | 253° |
| 2026-05-05 14:12 | 49.26747 | -65.75167 | 35647 ft | 416 kts | 253° |
| 2026-05-05 14:13 | 49.24655 | -65.83439 | 35649 ft | 415 kts | 252° |
| 2026-05-05 14:13 | 49.22554 | -65.91708 | 35648 ft | 415 kts | 253° |
| 2026-05-05 14:14 | 49.20460 | -65.99925 | 35650 ft | 417 kts | 253° |
| 2026-05-05 14:14 | 49.18356 | -66.08146 | 35640 ft | 416 kts | 253° |
| 2026-05-05 14:15 | 49.16249 | -66.16363 | 35645 ft | 417 kts | 252° |
| 2026-05-05 14:15 | 49.14132 | -66.24584 | 35629 ft | 416 kts | 252° |
| 2026-05-05 14:16 | 49.12016 | -66.32767 | 35645 ft | 415 kts | 253° |
| 2026-05-05 14:16 | 49.09899 | -66.40927 | 35644 ft | 414 kts | 252° |
| 2026-05-05 14:17 | 49.07766 | -66.49116 | 35624 ft | 413 kts | 252° |
| 2026-05-05 14:17 | 49.05662 | -66.57168 | 35626 ft | 411 kts | 252° |
| 2026-05-05 14:18 | 49.03539 | -66.65258 | 35623 ft | 410 kts | 252° |
| 2026-05-05 14:18 | 49.01381 | -66.73468 | 35633 ft | 411 kts | 251° |
| 2026-05-05 14:19 | 48.99233 | -66.81584 | 35637 ft | 410 kts | 252° |
| 2026-05-05 14:19 | 48.97079 | -66.89699 | 35726 ft | 415 kts | 252° |
| 2026-05-05 14:20 | 48.96005 | -66.93751 | 35856 ft | 415 kts | 252° |
| 2026-05-05 14:20 | 48.94917 | -66.97839 | 35985 ft | 415 kts | 251° |
| 2026-05-05 14:20 | 48.93827 | -67.01933 | 36105 ft | 415 kts | 251° |
| 2026-05-05 14:20 | 48.92740 | -67.06004 | 36192 ft | 417 kts | 251° |
| 2026-05-05 14:21 | 48.90544 | -67.14190 | 36359 ft | 419 kts | 251° |
| 2026-05-05 14:21 | 48.89442 | -67.18300 | 36464 ft | 419 kts | 250° |
| 2026-05-05 14:21 | 48.88329 | -67.22437 | 36580 ft | 420 kts | 251° |
| 2026-05-05 14:22 | 48.87209 | -67.26589 | 36708 ft | 421 kts | 250° |
| 2026-05-05 14:22 | 48.86098 | -67.30705 | 36859 ft | 422 kts | 250° |
| 2026-05-05 14:22 | 48.84993 | -67.34774 | 37001 ft | 422 kts | 250° |
| 2026-05-05 14:22 | 48.83884 | -67.38891 | 37123 ft | 422 kts | 250° |
| 2026-05-05 14:23 | 48.82758 | -67.43046 | 37236 ft | 423 kts | 250° |
| 2026-05-05 14:23 | 48.81627 | -67.47182 | 37349 ft | 424 kts | 250° |
| 2026-05-05 14:23 | 48.80500 | -67.51311 | 37472 ft | 425 kts | 250° |
| 2026-05-05 14:23 | 48.79370 | -67.55468 | 37587 ft | 425 kts | 250° |
| 2026-05-05 14:24 | 48.77081 | -67.63802 | 37606 ft | 426 kts | 250° |
| 2026-05-05 14:24 | 48.74793 | -67.72134 | 37617 ft | 426 kts | 249° |
| 2026-05-05 14:25 | 48.72520 | -67.80410 | 37605 ft | 426 kts | 249° |
| 2026-05-05 14:25 | 48.70245 | -67.88645 | 37614 ft | 424 kts | 248° |
| 2026-05-05 14:26 | 48.67934 | -67.96909 | 37615 ft | 424 kts | 249° |
| 2026-05-05 14:26 | 48.65655 | -68.05091 | 37603 ft | 423 kts | 249° |
| 2026-05-05 14:27 | 48.63438 | -68.13349 | 37612 ft | 424 kts | 252° |
| 2026-05-05 14:27 | 48.61719 | -68.21830 | 37605 ft | 422 kts | 256° |
| 2026-05-05 14:28 | 48.60507 | -68.30496 | 37614 ft | 423 kts | 261° |
| 2026-05-05 14:28 | 48.59725 | -68.39295 | 37602 ft | 424 kts | 263° |
| 2026-05-05 14:29 | 48.58990 | -68.48108 | 37594 ft | 424 kts | 263° |
| 2026-05-05 14:29 | 48.58254 | -68.56938 | 37599 ft | 424 kts | 262° |
| 2026-05-05 14:30 | 48.57491 | -68.65757 | 37605 ft | 425 kts | 262° |
| 2026-05-05 14:30 | 48.56737 | -68.74556 | 37577 ft | 424 kts | 261° |
| 2026-05-05 14:31 | 48.55958 | -68.83388 | 37576 ft | 424 kts | 262° |
| 2026-05-05 14:31 | 48.55190 | -68.92200 | 37576 ft | 424 kts | 262° |
| 2026-05-05 14:32 | 48.54409 | -69.01032 | 37586 ft | 424 kts | 262° |
| 2026-05-05 14:32 | 48.53635 | -69.09827 | 37582 ft | 424 kts | 262° |
| 2026-05-05 14:33 | 48.52846 | -69.18642 | 37577 ft | 424 kts | 262° |
| 2026-05-05 14:33 | 48.52044 | -69.27392 | 37576 ft | 424 kts | 262° |
| 2026-05-05 14:34 | 48.51247 | -69.36239 | 37575 ft | 423 kts | 261° |
| 2026-05-05 14:34 | 48.50429 | -69.45021 | 37563 ft | 422 kts | 262° |
| 2026-05-05 14:35 | 48.49630 | -69.53755 | 37569 ft | 422 kts | 261° |
| 2026-05-05 14:35 | 48.48806 | -69.62479 | 37583 ft | 422 kts | 261° |
| 2026-05-05 14:36 | 48.47961 | -69.71319 | 37561 ft | 421 kts | 260° |
| 2026-05-05 14:36 | 48.47138 | -69.80070 | 37553 ft | 421 kts | 260° |
| 2026-05-05 14:37 | 48.46308 | -69.88751 | 37559 ft | 420 kts | 259° |
| 2026-05-05 14:37 | 48.45457 | -69.97424 | 37553 ft | 419 kts | 260° |
| 2026-05-05 14:38 | 48.44605 | -70.06145 | 37549 ft | 419 kts | 260° |
| 2026-05-05 14:38 | 48.43753 | -70.14836 | 37546 ft | 421 kts | 259° |
| 2026-05-05 14:39 | 48.42891 | -70.23503 | 37551 ft | 419 kts | 259° |
| 2026-05-05 14:39 | 48.42012 | -70.32243 | 37545 ft | 420 kts | 259° |
| 2026-05-05 14:40 | 48.41145 | -70.40904 | 37522 ft | 420 kts | 259° |
| 2026-05-05 14:40 | 48.40255 | -70.49639 | 37534 ft | 421 kts | 259° |
| 2026-05-05 14:41 | 48.39366 | -70.58309 | 37533 ft | 421 kts | 259° |
| 2026-05-05 14:41 | 48.38466 | -70.67007 | 37540 ft | 421 kts | 258° |
| 2026-05-05 14:42 | 48.37546 | -70.75791 | 37524 ft | 421 kts | 259° |
| 2026-05-05 14:42 | 48.36641 | -70.84499 | 37502 ft | 422 kts | 258° |
| 2026-05-05 14:43 | 48.35712 | -70.93265 | 37526 ft | 422 kts | 258° |
| 2026-05-05 14:43 | 48.34678 | -71.01955 | 37501 ft | 421 kts | 255° |
| 2026-05-05 14:44 | 48.32932 | -71.10373 | 37522 ft | 420 kts | 248° |
| 2026-05-05 14:44 | 48.30439 | -71.18241 | 37521 ft | 419 kts | 240° |
| 2026-05-05 14:45 | 48.27187 | -71.25550 | 37516 ft | 418 kts | 233° |
| 2026-05-05 14:45 | 48.23461 | -71.32296 | 37521 ft | 418 kts | 232° |
| 2026-05-05 14:46 | 48.19745 | -71.38960 | 37531 ft | 418 kts | 232° |
| 2026-05-05 14:46 | 48.15998 | -71.45628 | 37502 ft | 417 kts | 232° |
| 2026-05-05 14:47 | 48.12267 | -71.52256 | 37504 ft | 417 kts | 232° |
| 2026-05-05 14:47 | 48.08519 | -71.58903 | 37532 ft | 418 kts | 232° |
| 2026-05-05 14:48 | 48.04745 | -71.65566 | 37497 ft | 418 kts | 231° |
| 2026-05-05 14:48 | 48.00960 | -71.72231 | 37509 ft | 419 kts | 231° |
| 2026-05-05 14:49 | 47.97189 | -71.78861 | 37537 ft | 417 kts | 231° |
| 2026-05-05 14:49 | 47.93438 | -71.85432 | 37527 ft | 418 kts | 231° |
| 2026-05-05 14:50 | 47.89651 | -71.92025 | 37564 ft | 418 kts | 232° |
| 2026-05-05 14:50 | 47.85851 | -71.98675 | 37551 ft | 418 kts | 231° |
| 2026-05-05 14:51 | 47.82059 | -72.05257 | 37543 ft | 417 kts | 231° |
| 2026-05-05 14:51 | 47.78259 | -72.11863 | 37531 ft | 417 kts | 231° |
| 2026-05-05 14:52 | 47.74462 | -72.18429 | 37549 ft | 416 kts | 231° |
| 2026-05-05 14:52 | 47.70672 | -72.24968 | 37529 ft | 416 kts | 231° |
| 2026-05-05 14:53 | 47.66909 | -72.31431 | 37532 ft | 415 kts | 232° |
| 2026-05-05 14:53 | 47.63125 | -72.37954 | 37514 ft | 415 kts | 231° |
| 2026-05-05 14:54 | 47.59338 | -72.44447 | 37567 ft | 415 kts | 231° |
| 2026-05-05 14:54 | 47.55534 | -72.50944 | 37537 ft | 415 kts | 232° |
| 2026-05-05 14:55 | 47.51776 | -72.57366 | 37549 ft | 413 kts | 231° |
| 2026-05-05 14:55 | 47.48009 | -72.63792 | 37561 ft | 413 kts | 231° |
| 2026-05-05 14:56 | 47.44199 | -72.70252 | 37558 ft | 412 kts | 230° |
| 2026-05-05 14:56 | 47.40430 | -72.76612 | 37527 ft | 412 kts | 231° |
| 2026-05-05 14:57 | 47.36666 | -72.82991 | 37555 ft | 412 kts | 230° |
| 2026-05-05 14:57 | 47.32893 | -72.89354 | 37577 ft | 412 kts | 230° |
| 2026-05-05 14:58 | 47.29099 | -72.95729 | 37560 ft | 412 kts | 230° |
| 2026-05-05 14:58 | 47.25320 | -73.02071 | 37565 ft | 411 kts | 230° |
| 2026-05-05 14:59 | 47.21535 | -73.08387 | 37550 ft | 411 kts | 231° |
| 2026-05-05 14:59 | 47.17764 | -73.14697 | 37557 ft | 411 kts | 230° |
| 2026-05-05 15:00 | 47.14629 | -73.19921 | 37567 ft | 411 kts | 230° |
| 2026-05-05 15:00 | 47.10205 | -73.27276 | 37565 ft | 411 kts | 231° |
| 2026-05-05 15:01 | 47.06410 | -73.33568 | 37533 ft | 411 kts | 230° |
| 2026-05-05 15:01 | 47.02602 | -73.39867 | 37542 ft | 411 kts | 231° |
| 2026-05-05 15:02 | 46.98819 | -73.46101 | 37541 ft | 410 kts | 231° |
| 2026-05-05 15:02 | 46.95010 | -73.52382 | 37569 ft | 410 kts | 231° |
| 2026-05-05 15:03 | 46.91251 | -73.58577 | 37545 ft | 410 kts | 231° |
| 2026-05-05 15:03 | 46.87398 | -73.64898 | 37568 ft | 409 kts | 231° |
| 2026-05-05 15:04 | 46.83559 | -73.71169 | 37561 ft | 410 kts | 230° |
| 2026-05-05 15:04 | 46.79745 | -73.77378 | 37559 ft | 409 kts | 230° |
| 2026-05-05 15:05 | 46.74050 | -73.86633 | 37673 ft | 410 kts | 231° |
| 2026-05-05 15:05 | 46.72149 | -73.89726 | 37916 ft | 408 kts | 231° |
| 2026-05-05 15:06 | 46.70246 | -73.92821 | 38091 ft | 407 kts | 230° |
| 2026-05-05 15:06 | 46.68372 | -73.95866 | 38215 ft | 408 kts | 231° |
| 2026-05-05 15:06 | 46.66467 | -73.98954 | 38273 ft | 409 kts | 230° |
| 2026-05-05 15:06 | 46.64565 | -74.02026 | 38377 ft | 410 kts | 230° |
| 2026-05-05 15:07 | 46.62638 | -74.05134 | 38489 ft | 411 kts | 230° |
| 2026-05-05 15:07 | 46.60724 | -74.08218 | 38622 ft | 411 kts | 230° |
| 2026-05-05 15:07 | 46.58808 | -74.11304 | 38771 ft | 411 kts | 230° |
| 2026-05-05 15:07 | 46.56893 | -74.14382 | 38875 ft | 411 kts | 230° |
| 2026-05-05 15:08 | 46.54973 | -74.17466 | 38961 ft | 412 kts | 230° |
| 2026-05-05 15:08 | 46.51111 | -74.23657 | 39164 ft | 413 kts | 230° |
| 2026-05-05 15:09 | 46.47253 | -74.29830 | 39339 ft | 414 kts | 230° |
| 2026-05-05 15:09 | 46.45312 | -74.32931 | 39440 ft | 414 kts | 230° |
| 2026-05-05 15:09 | 46.43379 | -74.36020 | 39539 ft | 415 kts | 230° |
| 2026-05-05 15:10 | 46.39481 | -74.42227 | 39537 ft | 416 kts | 230° |
| 2026-05-05 15:10 | 46.35584 | -74.48419 | 39557 ft | 416 kts | 230° |
| 2026-05-05 15:11 | 46.31702 | -74.54576 | 39577 ft | 416 kts | 230° |
| 2026-05-05 15:11 | 46.27778 | -74.60780 | 39599 ft | 416 kts | 230° |
| 2026-05-05 15:12 | 46.23842 | -74.66993 | 39582 ft | 416 kts | 230° |
| 2026-05-05 15:12 | 46.19928 | -74.73155 | 39583 ft | 417 kts | 230° |
| 2026-05-05 15:13 | 46.16008 | -74.79317 | 39592 ft | 417 kts | 230° |
| 2026-05-05 15:13 | 46.12063 | -74.85503 | 39596 ft | 416 kts | 230° |
| 2026-05-05 15:14 | 46.08153 | -74.91616 | 39586 ft | 416 kts | 230° |
| 2026-05-05 15:14 | 46.04219 | -74.97754 | 39592 ft | 416 kts | 230° |
| 2026-05-05 15:15 | 46.00293 | -75.03870 | 39573 ft | 415 kts | 230° |
| 2026-05-05 15:15 | 45.96361 | -75.09980 | 39577 ft | 414 kts | 230° |
| 2026-05-05 15:16 | 45.92445 | -75.16053 | 39606 ft | 414 kts | 230° |
| 2026-05-05 15:16 | 45.88597 | -75.22006 | 39611 ft | 413 kts | 230° |
| 2026-05-05 15:17 | 45.84681 | -75.28044 | 39628 ft | 412 kts | 230° |
| 2026-05-05 15:17 | 45.80777 | -75.34056 | 39583 ft | 411 kts | 230° |
| 2026-05-05 15:18 | 45.76903 | -75.40010 | 39637 ft | 412 kts | 230° |
| 2026-05-05 15:18 | 45.72996 | -75.45994 | 39626 ft | 410 kts | 230° |
| 2026-05-05 15:19 | 45.69099 | -75.51953 | 39579 ft | 410 kts | 230° |
| 2026-05-05 15:19 | 45.65205 | -75.57896 | 39607 ft | 410 kts | 230° |
| 2026-05-05 15:20 | 45.61324 | -75.63805 | 39600 ft | 409 kts | 230° |
| 2026-05-05 15:20 | 45.57397 | -75.69770 | 39604 ft | 408 kts | 230° |
| 2026-05-05 15:21 | 45.53486 | -75.75690 | 39607 ft | 408 kts | 230° |
| 2026-05-05 15:21 | 45.49707 | -75.81692 | 39617 ft | 407 kts | 234° |
| 2026-05-05 15:22 | 45.46584 | -75.88394 | 39594 ft | 405 kts | 243° |
| 2026-05-05 15:22 | 45.44248 | -75.95689 | 39591 ft | 405 kts | 250° |
| 2026-05-05 15:23 | 45.42745 | -76.03431 | 39605 ft | 406 kts | 258° |
| 2026-05-05 15:23 | 45.41786 | -76.11346 | 39605 ft | 405 kts | 258° |
| 2026-05-05 15:24 | 45.40385 | -76.19080 | 39600 ft | 403 kts | 252° |
| 2026-05-05 15:24 | 45.38355 | -76.26498 | 39601 ft | 403 kts | 246° |
| 2026-05-05 15:25 | 45.35737 | -76.33488 | 39626 ft | 403 kts | 240° |
| 2026-05-05 15:25 | 45.32592 | -76.40114 | 39644 ft | 403 kts | 238° |
| 2026-05-05 15:26 | 45.29382 | -76.46654 | 39637 ft | 403 kts | 238° |
| 2026-05-05 15:26 | 45.26176 | -76.53149 | 39616 ft | 402 kts | 238° |
| 2026-05-05 15:27 | 45.22956 | -76.59653 | 39658 ft | 401 kts | 238° |
| 2026-05-05 15:27 | 45.19738 | -76.66125 | 39657 ft | 400 kts | 237° |
| 2026-05-05 15:28 | 45.16517 | -76.72599 | 39635 ft | 399 kts | 237° |
| 2026-05-05 15:28 | 45.13327 | -76.78985 | 39600 ft | 398 kts | 237° |
| 2026-05-05 15:29 | 45.10109 | -76.85417 | 39670 ft | 399 kts | 237° |
| 2026-05-05 15:29 | 45.06917 | -76.91791 | 39668 ft | 396 kts | 237° |
| 2026-05-05 15:30 | 45.03721 | -76.98151 | 39675 ft | 394 kts | 237° |
| 2026-05-05 15:30 | 45.00545 | -77.04451 | 39621 ft | 394 kts | 237° |
| 2026-05-05 15:31 | 44.97380 | -77.10716 | 39624 ft | 395 kts | 237° |
| 2026-05-05 15:31 | 44.94176 | -77.17055 | 39624 ft | 395 kts | 237° |
| 2026-05-05 15:32 | 44.90982 | -77.23347 | 39623 ft | 396 kts | 237° |
| 2026-05-05 15:32 | 44.87727 | -77.29745 | 39623 ft | 397 kts | 237° |
| 2026-05-05 15:33 | 44.84501 | -77.36076 | 39631 ft | 397 kts | 237° |
| 2026-05-05 15:33 | 44.81298 | -77.42347 | 39634 ft | 396 kts | 237° |
| 2026-05-05 15:34 | 44.78068 | -77.48653 | 39653 ft | 397 kts | 237° |
| 2026-05-05 15:34 | 44.74820 | -77.54990 | 39658 ft | 397 kts | 237° |
| 2026-05-05 15:35 | 44.71579 | -77.61296 | 39655 ft | 397 kts | 237° |
| 2026-05-05 15:35 | 44.67874 | -77.68481 | 39670 ft | 398 kts | 236° |
| 2026-05-05 15:36 | 44.65182 | -77.73761 | 39666 ft | 398 kts | 238° |
| 2026-05-05 15:36 | 44.62273 | -77.80367 | 39674 ft | 397 kts | 242° |
| 2026-05-05 15:37 | 44.59461 | -77.87155 | 39669 ft | 398 kts | 242° |
| 2026-05-05 15:37 | 44.56669 | -77.93868 | 39682 ft | 400 kts | 242° |
| 2026-05-05 15:38 | 44.53861 | -78.00618 | 39681 ft | 401 kts | 242° |
| 2026-05-05 15:38 | 44.51061 | -78.07331 | 39693 ft | 401 kts | 242° |
| 2026-05-05 15:39 | 44.48238 | -78.14090 | 39643 ft | 401 kts | 242° |
| 2026-05-05 15:39 | 44.45414 | -78.20835 | 39657 ft | 400 kts | 242° |
| 2026-05-05 15:40 | 44.42569 | -78.27615 | 39681 ft | 402 kts | 242° |
| 2026-05-05 15:40 | 44.39737 | -78.34347 | 39696 ft | 403 kts | 242° |
| 2026-05-05 15:41 | 44.37014 | -78.40808 | 39676 ft | 402 kts | 241° |
| 2026-05-05 15:41 | 44.34145 | -78.47600 | 39696 ft | 402 kts | 242° |
| 2026-05-05 15:42 | 44.31283 | -78.54353 | 39680 ft | 402 kts | 241° |
| 2026-05-05 15:42 | 44.28440 | -78.61042 | 39702 ft | 399 kts | 242° |
| 2026-05-05 15:43 | 44.25589 | -78.67735 | 39702 ft | 400 kts | 241° |
| 2026-05-05 15:43 | 44.22738 | -78.74419 | 39725 ft | 401 kts | 241° |
| 2026-05-05 15:44 | 44.19890 | -78.81073 | 39727 ft | 400 kts | 241° |
| 2026-05-05 15:44 | 44.17045 | -78.87700 | 39721 ft | 399 kts | 240° |
| 2026-05-05 15:45 | 44.14171 | -78.94366 | 39695 ft | 399 kts | 240° |
| 2026-05-05 15:45 | 44.11227 | -79.00902 | 39680 ft | 398 kts | 239° |
| 2026-05-05 15:46 | 44.08285 | -79.07382 | 39689 ft | 399 kts | 240° |
| 2026-05-05 15:46 | 44.05312 | -79.13921 | 39689 ft | 400 kts | 240° |
| 2026-05-05 15:47 | 44.02340 | -79.20448 | 39707 ft | 399 kts | 239° |
| 2026-05-05 15:47 | 43.99375 | -79.26953 | 39694 ft | 399 kts | 239° |
| 2026-05-05 15:48 | 43.96385 | -79.33477 | 39680 ft | 399 kts | 240° |
| 2026-05-05 15:48 | 43.93387 | -79.40025 | 39687 ft | 400 kts | 240° |
| 2026-05-05 15:49 | 43.90396 | -79.46532 | 39716 ft | 401 kts | 240° |
| 2026-05-05 15:49 | 43.87360 | -79.53122 | 39718 ft | 401 kts | 240° |
| 2026-05-05 15:50 | 43.84212 | -79.59536 | 39685 ft | 403 kts | 236° |
| 2026-05-05 15:50 | 43.80638 | -79.65554 | 39687 ft | 406 kts | 231° |
| 2026-05-05 15:51 | 43.76621 | -79.71159 | 39717 ft | 410 kts | 227° |
| 2026-05-05 15:51 | 43.72280 | -79.76246 | 39716 ft | 412 kts | 224° |
| 2026-05-05 15:52 | 43.67851 | -79.81308 | 39702 ft | 411 kts | 224° |
| 2026-05-05 15:52 | 43.63408 | -79.86360 | 39710 ft | 413 kts | 224° |
| 2026-05-05 15:53 | 43.58980 | -79.91367 | 39717 ft | 414 kts | 224° |
| 2026-05-05 15:53 | 43.54528 | -79.96396 | 39719 ft | 413 kts | 224° |
| 2026-05-05 15:54 | 43.50057 | -80.01426 | 39735 ft | 415 kts | 224° |
| 2026-05-05 15:54 | 43.45583 | -80.06450 | 39710 ft | 414 kts | 224° |
| 2026-05-05 15:55 | 43.41101 | -80.11477 | 39723 ft | 414 kts | 224° |
| 2026-05-05 15:55 | 43.36650 | -80.16466 | 39740 ft | 414 kts | 224° |
| 2026-05-05 15:56 | 43.32142 | -80.21499 | 39727 ft | 416 kts | 224° |
| 2026-05-05 15:56 | 43.27634 | -80.26521 | 39707 ft | 416 kts | 225° |
| 2026-05-05 15:57 | 43.23125 | -80.31538 | 39746 ft | 417 kts | 225° |
| 2026-05-05 15:57 | 43.18601 | -80.36562 | 39739 ft | 418 kts | 224° |
| 2026-05-05 15:58 | 43.14097 | -80.41550 | 39719 ft | 416 kts | 225° |
| 2026-05-05 15:58 | 43.09542 | -80.46581 | 39736 ft | 417 kts | 225° |
| 2026-05-05 15:59 | 43.05027 | -80.51570 | 39720 ft | 417 kts | 225° |
| 2026-05-05 15:59 | 43.00508 | -80.56544 | 39744 ft | 417 kts | 225° |
| 2026-05-05 16:00 | 42.95988 | -80.61510 | 39741 ft | 418 kts | 225° |
| 2026-05-05 16:00 | 42.91413 | -80.66526 | 39736 ft | 419 kts | 224° |
| 2026-05-05 16:01 | 42.86838 | -80.71534 | 39740 ft | 418 kts | 224° |
| 2026-05-05 16:01 | 42.82279 | -80.76510 | 39739 ft | 418 kts | 224° |
| 2026-05-05 16:02 | 42.77730 | -80.81463 | 39735 ft | 419 kts | 225° |
| 2026-05-05 16:02 | 42.73175 | -80.86428 | 39740 ft | 418 kts | 225° |
| 2026-05-05 16:03 | 42.68862 | -80.91699 | 39743 ft | 414 kts | 230° |
| 2026-05-05 16:03 | 42.64820 | -80.97266 | 39751 ft | 415 kts | 231° |
| 2026-05-05 16:04 | 42.60736 | -81.02858 | 39740 ft | 416 kts | 231° |
| 2026-05-05 16:04 | 42.56661 | -81.08431 | 39747 ft | 417 kts | 231° |
| 2026-05-05 16:05 | 42.52578 | -81.14011 | 39738 ft | 415 kts | 231° |
| 2026-05-05 16:05 | 42.48503 | -81.19566 | 39749 ft | 416 kts | 232° |
| 2026-05-05 16:06 | 42.44425 | -81.25118 | 39746 ft | 416 kts | 232° |
| 2026-05-05 16:06 | 42.40335 | -81.30682 | 39764 ft | 416 kts | 231° |
| 2026-05-05 16:07 | 42.36251 | -81.36219 | 39760 ft | 415 kts | 232° |
| 2026-05-05 16:07 | 42.32170 | -81.41739 | 39764 ft | 416 kts | 232° |
| 2026-05-05 16:08 | 42.28089 | -81.47259 | 39758 ft | 415 kts | 231° |
| 2026-05-05 16:08 | 42.24017 | -81.52751 | 39766 ft | 415 kts | 231° |
| 2026-05-05 16:09 | 42.19922 | -81.58254 | 39778 ft | 416 kts | 232° |
| 2026-05-05 16:09 | 42.15799 | -81.63802 | 39779 ft | 416 kts | 232° |
| 2026-05-05 16:10 | 42.11599 | -81.69428 | 39767 ft | 417 kts | 231° |
| 2026-05-05 16:10 | 42.07425 | -81.75011 | 39792 ft | 416 kts | 232° |
| 2026-05-05 16:11 | 42.03223 | -81.80605 | 39777 ft | 417 kts | 232° |
| 2026-05-05 16:12 | 41.95018 | -81.91559 | 39780 ft | 416 kts | 231° |
| 2026-05-05 16:13 | 41.84705 | -82.05195 | 39769 ft | 416 kts | 233° |
| 2026-05-05 16:13 | 41.80605 | -82.10623 | 39767 ft | 417 kts | 232° |
| 2026-05-05 16:14 | 41.72361 | -82.21532 | 39773 ft | 417 kts | 231° |
| 2026-05-05 16:15 | 41.64048 | -82.32422 | 39776 ft | 417 kts | 232° |
| 2026-05-05 16:16 | 41.55760 | -82.43223 | 39789 ft | 416 kts | 233° |
| 2026-05-05 16:17 | 41.49531 | -82.51347 | 39784 ft | 414 kts | 233° |
| 2026-05-05 16:18 | 41.43335 | -82.59405 | 39787 ft | 414 kts | 233° |
| 2026-05-05 16:19 | 41.37097 | -82.67513 | 39792 ft | 415 kts | 233° |
| 2026-05-05 16:19 | 41.30918 | -82.75528 | 39782 ft | 414 kts | 232° |
| 2026-05-05 16:20 | 41.22548 | -82.86214 | 39792 ft | 416 kts | 233° |
| 2026-05-05 16:22 | 41.12182 | -82.99613 | 39812 ft | 417 kts | 232° |
| 2026-05-05 16:23 | 41.03765 | -83.10364 | 39801 ft | 420 kts | 232° |
| 2026-05-05 16:23 | 40.97411 | -83.18374 | 39802 ft | 419 kts | 234° |
| 2026-05-05 16:24 | 40.93195 | -83.23717 | 39806 ft | 418 kts | 235° |
| 2026-05-05 16:25 | 40.86810 | -83.31870 | 39810 ft | 418 kts | 233° |
| 2026-05-05 16:25 | 40.80489 | -83.39853 | 39807 ft | 420 kts | 233° |
| 2026-05-05 16:26 | 40.72023 | -83.50501 | 39820 ft | 420 kts | 233° |
| 2026-05-05 16:27 | 40.67786 | -83.55835 | 39821 ft | 420 kts | 233° |
| 2026-05-05 16:27 | 40.63540 | -83.61131 | 39812 ft | 418 kts | 233° |
| 2026-05-05 16:28 | 40.59262 | -83.66501 | 39814 ft | 422 kts | 233° |
| 2026-05-05 16:28 | 40.54976 | -83.71864 | 39827 ft | 423 kts | 232° |
| 2026-05-05 16:29 | 40.50688 | -83.77177 | 39835 ft | 422 kts | 233° |
| 2026-05-05 16:29 | 40.46399 | -83.82494 | 39830 ft | 422 kts | 234° |
| 2026-05-05 16:30 | 40.42169 | -83.87775 | 39840 ft | 419 kts | 233° |
| 2026-05-05 16:30 | 40.37933 | -83.93057 | 39848 ft | 421 kts | 233° |
| 2026-05-05 16:31 | 40.33656 | -83.98364 | 39841 ft | 424 kts | 233° |
| 2026-05-05 16:31 | 40.29341 | -84.03657 | 39844 ft | 422 kts | 238° |
| 2026-05-05 16:32 | 40.25466 | -84.09347 | 39841 ft | 413 kts | 239° |
| 2026-05-05 16:32 | 40.21660 | -84.15026 | 39844 ft | 416 kts | 238° |
| 2026-05-05 16:33 | 40.17786 | -84.20660 | 39839 ft | 413 kts | 240° |
| 2026-05-05 16:33 | 40.13981 | -84.26323 | 39843 ft | 416 kts | 239° |
| 2026-05-05 16:34 | 40.10159 | -84.31998 | 39839 ft | 415 kts | 240° |
| 2026-05-05 16:34 | 40.06327 | -84.37702 | 39843 ft | 417 kts | 238° |
| 2026-05-05 16:35 | 40.02480 | -84.43343 | 39839 ft | 416 kts | 237° |
| 2026-05-05 16:35 | 39.98608 | -84.48982 | 39831 ft | 416 kts | 239° |
| 2026-05-05 16:36 | 39.94772 | -84.54605 | 39834 ft | 414 kts | 239° |
| 2026-05-05 16:36 | 39.90955 | -84.60211 | 39844 ft | 414 kts | 239° |
| 2026-05-05 16:37 | 39.87151 | -84.65803 | 39833 ft | 415 kts | 237° |
| 2026-05-05 16:37 | 39.83240 | -84.71464 | 39850 ft | 417 kts | 238° |
| 2026-05-05 16:38 | 39.79371 | -84.77109 | 39853 ft | 418 kts | 238° |
| 2026-05-05 16:38 | 39.75487 | -84.82754 | 39846 ft | 413 kts | 238° |
| 2026-05-05 16:39 | 39.71676 | -84.88307 | 39858 ft | 415 kts | 238° |
| 2026-05-05 16:39 | 39.67804 | -84.93866 | 39865 ft | 411 kts | 239° |
| 2026-05-05 16:40 | 39.63943 | -84.99453 | 39852 ft | 415 kts | 238° |
| 2026-05-05 16:40 | 39.60074 | -85.05033 | 39851 ft | 416 kts | 239° |
| 2026-05-05 16:41 | 39.56192 | -85.10612 | 39835 ft | 416 kts | 239° |
| 2026-05-05 16:41 | 39.52282 | -85.16270 | 39829 ft | 418 kts | 239° |
| 2026-05-05 16:42 | 39.48359 | -85.21900 | 39839 ft | 417 kts | 238° |
| 2026-05-05 16:42 | 39.44472 | -85.27459 | 39862 ft | 416 kts | 238° |
| 2026-05-05 16:43 | 39.40605 | -85.32989 | 39855 ft | 416 kts | 239° |
| 2026-05-05 16:43 | 39.36701 | -85.38562 | 39849 ft | 416 kts | 239° |
| 2026-05-05 16:44 | 39.32830 | -85.44070 | 39851 ft | 416 kts | 239° |
| 2026-05-05 16:44 | 39.28914 | -85.49639 | 39848 ft | 416 kts | 239° |
| 2026-05-05 16:45 | 39.25021 | -85.55175 | 39849 ft | 417 kts | 239° |
| 2026-05-05 16:45 | 39.21107 | -85.60694 | 39849 ft | 417 kts | 239° |
| 2026-05-05 16:46 | 39.17159 | -85.66293 | 39856 ft | 419 kts | 239° |
| 2026-05-05 16:46 | 39.13213 | -85.71866 | 39853 ft | 418 kts | 239° |
| 2026-05-05 16:47 | 39.09282 | -85.77422 | 39851 ft | 418 kts | 239° |
| 2026-05-05 16:47 | 39.05353 | -85.82936 | 39853 ft | 419 kts | 239° |
| 2026-05-05 16:48 | 39.01391 | -85.88492 | 39839 ft | 418 kts | 239° |
| 2026-05-05 16:48 | 38.97465 | -85.94011 | 39827 ft | 421 kts | 238° |
| 2026-05-05 16:49 | 38.93499 | -85.99557 | 39842 ft | 421 kts | 239° |
| 2026-05-05 16:49 | 38.89513 | -86.05119 | 39855 ft | 420 kts | 239° |
| 2026-05-05 16:50 | 38.85518 | -86.10693 | 39863 ft | 419 kts | 239° |
| 2026-05-05 16:50 | 38.81536 | -86.16215 | 39865 ft | 421 kts | 239° |
| 2026-05-05 16:51 | 38.77585 | -86.21733 | 39867 ft | 419 kts | 239° |
| 2026-05-05 16:51 | 38.73631 | -86.27219 | 39866 ft | 419 kts | 239° |
| 2026-05-05 16:52 | 38.69677 | -86.32690 | 39872 ft | 418 kts | 239° |
| 2026-05-05 16:52 | 38.65738 | -86.38142 | 39866 ft | 418 kts | 238° |
| 2026-05-05 16:53 | 38.61774 | -86.43600 | 39864 ft | 418 kts | 238° |
| 2026-05-05 16:53 | 38.57800 | -86.49066 | 39869 ft | 417 kts | 239° |
| 2026-05-05 16:54 | 38.53873 | -86.54462 | 39861 ft | 414 kts | 239° |
| 2026-05-05 16:54 | 38.49915 | -86.59895 | 39861 ft | 416 kts | 239° |
| 2026-05-05 16:55 | 38.45996 | -86.65291 | 39861 ft | 415 kts | 238° |
| 2026-05-05 16:55 | 38.42015 | -86.70732 | 39873 ft | 417 kts | 238° |
| 2026-05-05 16:56 | 38.38070 | -86.76109 | 39867 ft | 418 kts | 238° |
| 2026-05-05 16:56 | 38.34098 | -86.81533 | 39866 ft | 416 kts | 238° |
| 2026-05-05 16:57 | 38.30142 | -86.86905 | 39871 ft | 416 kts | 238° |
| 2026-05-05 16:57 | 38.26175 | -86.92297 | 39875 ft | 417 kts | 238° |
| 2026-05-05 16:58 | 38.22221 | -86.97668 | 39877 ft | 417 kts | 238° |
| 2026-05-05 16:58 | 38.18251 | -87.03043 | 39880 ft | 415 kts | 238° |
| 2026-05-05 16:59 | 38.14312 | -87.08364 | 39879 ft | 414 kts | 238° |
| 2026-05-05 16:59 | 38.10360 | -87.13694 | 39869 ft | 413 kts | 238° |
| 2026-05-05 17:00 | 38.06431 | -87.18986 | 39860 ft | 413 kts | 238° |
| 2026-05-05 17:00 | 38.02486 | -87.24289 | 39864 ft | 413 kts | 239° |
| 2026-05-05 17:01 | 37.98498 | -87.29643 | 39869 ft | 414 kts | 239° |
| 2026-05-05 17:01 | 37.94531 | -87.34962 | 39869 ft | 412 kts | 238° |
| 2026-05-05 17:02 | 37.90582 | -87.40238 | 39869 ft | 410 kts | 238° |
| 2026-05-05 17:02 | 37.86617 | -87.45537 | 39873 ft | 412 kts | 238° |
| 2026-05-05 17:03 | 37.82680 | -87.50789 | 39871 ft | 410 kts | 238° |
| 2026-05-05 17:03 | 37.78731 | -87.56041 | 39874 ft | 410 kts | 238° |
| 2026-05-05 17:04 | 37.74795 | -87.61276 | 39875 ft | 409 kts | 239° |
| 2026-05-05 17:04 | 37.70880 | -87.66469 | 39873 ft | 410 kts | 238° |
| 2026-05-05 17:05 | 37.66914 | -87.71721 | 39868 ft | 412 kts | 238° |
| 2026-05-05 17:05 | 37.62952 | -87.76958 | 39866 ft | 410 kts | 238° |
| 2026-05-05 17:06 | 37.59021 | -87.82142 | 39866 ft | 410 kts | 238° |
| 2026-05-05 17:06 | 37.55096 | -87.87316 | 39873 ft | 408 kts | 238° |
| 2026-05-05 17:07 | 37.51157 | -87.92487 | 39866 ft | 408 kts | 238° |
| 2026-05-05 17:07 | 37.47248 | -87.97707 | 39868 ft | 407 kts | 240° |
| 2026-05-05 17:08 | 37.43724 | -88.03157 | 39871 ft | 401 kts | 243° |
| 2026-05-05 17:08 | 37.40270 | -88.08677 | 39863 ft | 399 kts | 242° |
| 2026-05-05 17:09 | 37.36827 | -88.14161 | 39858 ft | 399 kts | 243° |
| 2026-05-05 17:09 | 37.33381 | -88.19648 | 39857 ft | 399 kts | 242° |
| 2026-05-05 17:10 | 37.29942 | -88.25122 | 39857 ft | 400 kts | 243° |
| 2026-05-05 17:10 | 37.26487 | -88.30605 | 39860 ft | 399 kts | 242° |
| 2026-05-05 17:11 | 37.23035 | -88.36056 | 39857 ft | 402 kts | 243° |
| 2026-05-05 17:11 | 37.19586 | -88.41523 | 39866 ft | 398 kts | 243° |
| 2026-05-05 17:12 | 37.16147 | -88.47030 | 39862 ft | 399 kts | 242° |
| 2026-05-05 17:12 | 37.12682 | -88.52454 | 39855 ft | 397 kts | 243° |
| 2026-05-05 17:13 | 37.09235 | -88.57859 | 39869 ft | 399 kts | 244° |
| 2026-05-05 17:13 | 37.05761 | -88.63355 | 39855 ft | 399 kts | 243° |
| 2026-05-05 17:14 | 37.02862 | -88.67896 | 39881 ft | 398 kts | 242° |
| 2026-05-05 17:14 | 36.99382 | -88.73328 | 39864 ft | 398 kts | 243° |
| 2026-05-05 17:15 | 36.95969 | -88.78725 | 39866 ft | 401 kts | 242° |
| 2026-05-05 17:15 | 36.92438 | -88.84214 | 39862 ft | 401 kts | 243° |
| 2026-05-05 17:16 | 36.88973 | -88.89658 | 39861 ft | 399 kts | 242° |
| 2026-05-05 17:16 | 36.85463 | -88.95098 | 39858 ft | 401 kts | 243° |
| 2026-05-05 17:17 | 36.81966 | -89.00565 | 39851 ft | 400 kts | 241° |
| 2026-05-05 17:17 | 36.78446 | -89.06023 | 39845 ft | 400 kts | 241° |
| 2026-05-05 17:18 | 36.74947 | -89.11369 | 39844 ft | 398 kts | 243° |
| 2026-05-05 17:18 | 36.71486 | -89.16798 | 39847 ft | 400 kts | 242° |
| 2026-05-05 17:19 | 36.67991 | -89.22186 | 39833 ft | 400 kts | 242° |
| 2026-05-05 17:19 | 36.64527 | -89.27573 | 39818 ft | 398 kts | 240° |
| 2026-05-05 17:20 | 36.60992 | -89.32989 | 39832 ft | 401 kts | 241° |
| 2026-05-05 17:20 | 36.57481 | -89.38341 | 39847 ft | 399 kts | 243° |
| 2026-05-05 17:21 | 36.53976 | -89.43716 | 39836 ft | 399 kts | 243° |
| 2026-05-05 17:22 | 36.48721 | -89.51801 | 39837 ft | 400 kts | 243° |
| 2026-05-05 17:22 | 36.45200 | -89.57202 | 39827 ft | 401 kts | 243° |
| 2026-05-05 17:23 | 36.41696 | -89.62568 | 39836 ft | 400 kts | 242° |
| 2026-05-05 17:23 | 36.38171 | -89.67959 | 39842 ft | 401 kts | 240° |
| 2026-05-05 17:24 | 36.34618 | -89.73333 | 39835 ft | 399 kts | 241° |
| 2026-05-05 17:24 | 36.31109 | -89.78664 | 39829 ft | 400 kts | 242° |
| 2026-05-05 17:25 | 36.27593 | -89.84022 | 39835 ft | 402 kts | 241° |
| 2026-05-05 17:25 | 36.24031 | -89.89373 | 39845 ft | 404 kts | 242° |
| 2026-05-05 17:26 | 36.20485 | -89.94764 | 39843 ft | 401 kts | 241° |
| 2026-05-05 17:26 | 36.16918 | -90.00109 | 39839 ft | 401 kts | 242° |
| 2026-05-05 17:27 | 36.13409 | -90.05458 | 39845 ft | 402 kts | 241° |
| 2026-05-05 17:27 | 36.09872 | -90.10796 | 39835 ft | 402 kts | 241° |
| 2026-05-05 17:28 | 36.06297 | -90.16160 | 39837 ft | 403 kts | 241° |
| 2026-05-05 17:28 | 36.02702 | -90.21533 | 39825 ft | 404 kts | 241° |
| 2026-05-05 17:29 | 35.99157 | -90.26895 | 39814 ft | 403 kts | 240° |
| 2026-05-05 17:29 | 35.95586 | -90.32217 | 39805 ft | 401 kts | 240° |
| 2026-05-05 17:30 | 35.91985 | -90.37552 | 39811 ft | 404 kts | 241° |
| 2026-05-05 17:30 | 35.88354 | -90.42922 | 39807 ft | 402 kts | 243° |
| 2026-05-05 17:31 | 35.84811 | -90.48267 | 39808 ft | 400 kts | 241° |
| 2026-05-05 17:31 | 35.81282 | -90.53542 | 39818 ft | 400 kts | 240° |
| 2026-05-05 17:32 | 35.77697 | -90.58807 | 39831 ft | 402 kts | 241° |
| 2026-05-05 17:32 | 35.74141 | -90.64075 | 39814 ft | 401 kts | 243° |
| 2026-05-05 17:32 | 35.72567 | -90.66891 | 39828 ft | 389 kts | 250° |
| 2026-05-05 17:33 | 35.71318 | -90.69859 | 39809 ft | 387 kts | 252° |
| 2026-05-05 17:33 | 35.68917 | -90.75750 | 39808 ft | 386 kts | 251° |
| 2026-05-05 17:34 | 35.66480 | -90.81653 | 39816 ft | 385 kts | 251° |
| 2026-05-05 17:34 | 35.64010 | -90.87529 | 39810 ft | 384 kts | 251° |
| 2026-05-05 17:35 | 35.61584 | -90.93383 | 39816 ft | 385 kts | 251° |
| 2026-05-05 17:35 | 35.59166 | -90.99218 | 39815 ft | 383 kts | 250° |
| 2026-05-05 17:36 | 35.56691 | -91.05051 | 39820 ft | 383 kts | 251° |
| 2026-05-05 17:36 | 35.54241 | -91.10849 | 39807 ft | 383 kts | 252° |
| 2026-05-05 17:37 | 35.51833 | -91.16695 | 39793 ft | 381 kts | 250° |
| 2026-05-05 17:37 | 35.49346 | -91.22494 | 39803 ft | 381 kts | 252° |
| 2026-05-05 17:38 | 35.46933 | -91.28265 | 39799 ft | 380 kts | 251° |
| 2026-05-05 17:38 | 35.44519 | -91.34038 | 39807 ft | 381 kts | 250° |
| 2026-05-05 17:39 | 35.42029 | -91.39806 | 39805 ft | 382 kts | 252° |
| 2026-05-05 17:39 | 35.39608 | -91.45542 | 39807 ft | 381 kts | 252° |
| 2026-05-05 17:40 | 35.37167 | -91.51299 | 39816 ft | 380 kts | 252° |
| 2026-05-05 17:40 | 35.34724 | -91.57021 | 39802 ft | 379 kts | 252° |
| 2026-05-05 17:41 | 35.32317 | -91.62732 | 39803 ft | 380 kts | 251° |
| 2026-05-05 17:41 | 35.29854 | -91.68492 | 39813 ft | 379 kts | 251° |
| 2026-05-05 17:42 | 35.27388 | -91.74236 | 39814 ft | 381 kts | 251° |
| 2026-05-05 17:42 | 35.24923 | -91.79989 | 39817 ft | 380 kts | 251° |
| 2026-05-05 17:43 | 35.22478 | -91.85685 | 39814 ft | 380 kts | 250° |
| 2026-05-05 17:43 | 35.20025 | -91.91390 | 39808 ft | 379 kts | 251° |
| 2026-05-05 17:44 | 35.17558 | -91.97115 | 39803 ft | 379 kts | 251° |
| 2026-05-05 17:44 | 35.15094 | -92.02837 | 39795 ft | 385 kts | 251° |
| 2026-05-05 17:45 | 35.12591 | -92.08637 | 39788 ft | 386 kts | 251° |
| 2026-05-05 17:45 | 35.10081 | -92.14436 | 39798 ft | 385 kts | 251° |
| 2026-05-05 17:46 | 35.07579 | -92.20203 | 39798 ft | 387 kts | 251° |
| 2026-05-05 17:46 | 35.05051 | -92.26019 | 39804 ft | 387 kts | 251° |
| 2026-05-05 17:47 | 35.02537 | -92.31800 | 39795 ft | 386 kts | 251° |
| 2026-05-05 17:47 | 35.00000 | -92.37621 | 39794 ft | 386 kts | 251° |
| 2026-05-05 17:48 | 34.97466 | -92.43425 | 39800 ft | 387 kts | 251° |
| 2026-05-05 17:48 | 34.94928 | -92.49238 | 39794 ft | 386 kts | 250° |
| 2026-05-05 17:49 | 34.92394 | -92.55012 | 39795 ft | 386 kts | 250° |
| 2026-05-05 17:49 | 34.89875 | -92.60753 | 39784 ft | 385 kts | 250° |
| 2026-05-05 17:50 | 34.87291 | -92.66630 | 39785 ft | 385 kts | 249° |
| 2026-05-05 17:50 | 34.84753 | -92.72392 | 39775 ft | 385 kts | 250° |
| 2026-05-05 17:51 | 34.82220 | -92.78129 | 39769 ft | 386 kts | 250° |
| 2026-05-05 17:51 | 34.79667 | -92.83910 | 39771 ft | 386 kts | 249° |
| 2026-05-05 17:52 | 34.77125 | -92.89648 | 39768 ft | 386 kts | 250° |
| 2026-05-05 17:52 | 34.74559 | -92.95437 | 39776 ft | 386 kts | 250° |
| 2026-05-05 17:53 | 34.72008 | -93.01187 | 39775 ft | 386 kts | 249° |
| 2026-05-05 17:53 | 34.69460 | -93.06904 | 39770 ft | 386 kts | 250° |
| 2026-05-05 17:54 | 34.66901 | -93.12645 | 39771 ft | 386 kts | 250° |
| 2026-05-05 17:54 | 34.64343 | -93.18376 | 39773 ft | 387 kts | 250° |
| 2026-05-05 17:55 | 34.61797 | -93.24075 | 39777 ft | 385 kts | 249° |
| 2026-05-05 17:55 | 34.59232 | -93.29800 | 39774 ft | 385 kts | 249° |
| 2026-05-05 17:56 | 34.56677 | -93.35494 | 39776 ft | 385 kts | 249° |
| 2026-05-05 17:56 | 34.54094 | -93.41236 | 39771 ft | 386 kts | 250° |
| 2026-05-05 17:57 | 34.51539 | -93.46922 | 39774 ft | 386 kts | 250° |
| 2026-05-05 17:57 | 34.48960 | -93.52641 | 39776 ft | 386 kts | 249° |
| 2026-05-05 17:58 | 34.46366 | -93.58388 | 39775 ft | 386 kts | 249° |
| 2026-05-05 17:58 | 34.43785 | -93.64097 | 39774 ft | 385 kts | 250° |
| 2026-05-05 17:59 | 34.41195 | -93.69813 | 39777 ft | 386 kts | 249° |
| 2026-05-05 17:59 | 34.38599 | -93.75537 | 39768 ft | 386 kts | 249° |
| 2026-05-05 18:00 | 34.36013 | -93.81225 | 39764 ft | 386 kts | 249° |
| 2026-05-05 18:00 | 34.33422 | -93.86912 | 39762 ft | 387 kts | 249° |
| 2026-05-05 18:01 | 34.30809 | -93.92649 | 39756 ft | 386 kts | 248° |
| 2026-05-05 18:01 | 34.28207 | -93.98342 | 39749 ft | 386 kts | 249° |
| 2026-05-05 18:02 | 34.25616 | -94.04007 | 39751 ft | 385 kts | 249° |
| 2026-05-05 18:02 | 34.23016 | -94.09683 | 39760 ft | 384 kts | 248° |
| 2026-05-05 18:03 | 34.20435 | -94.15311 | 39766 ft | 383 kts | 248° |
| 2026-05-05 18:03 | 34.17840 | -94.20957 | 39766 ft | 384 kts | 248° |
| 2026-05-05 18:04 | 34.15248 | -94.26581 | 39766 ft | 384 kts | 248° |
| 2026-05-05 18:04 | 34.12655 | -94.32208 | 39767 ft | 383 kts | 249° |
| 2026-05-05 18:05 | 34.10068 | -94.37804 | 39772 ft | 384 kts | 249° |
| 2026-05-05 18:05 | 34.07458 | -94.43449 | 39771 ft | 384 kts | 248° |
| 2026-05-05 18:06 | 34.04851 | -94.49079 | 39766 ft | 383 kts | 248° |
| 2026-05-05 18:06 | 34.02256 | -94.54666 | 39754 ft | 384 kts | 249° |
| 2026-05-05 18:07 | 33.99644 | -94.60285 | 39743 ft | 384 kts | 249° |
| 2026-05-05 18:07 | 33.97003 | -94.65958 | 39741 ft | 385 kts | 248° |
| 2026-05-05 18:08 | 33.94389 | -94.71563 | 39738 ft | 385 kts | 248° |
| 2026-05-05 18:08 | 33.91746 | -94.77224 | 39735 ft | 385 kts | 248° |
| 2026-05-05 18:09 | 33.89107 | -94.82862 | 39740 ft | 385 kts | 248° |
| 2026-05-05 18:09 | 33.86475 | -94.88483 | 39735 ft | 384 kts | 248° |
| 2026-05-05 18:10 | 33.83842 | -94.94093 | 39740 ft | 384 kts | 248° |
| 2026-05-05 18:10 | 33.81226 | -94.99654 | 39745 ft | 385 kts | 248° |
| 2026-05-05 18:11 | 33.78591 | -95.05254 | 39750 ft | 385 kts | 248° |
| 2026-05-05 18:11 | 33.75956 | -95.10842 | 39749 ft | 384 kts | 248° |
| 2026-05-05 18:12 | 33.73306 | -95.16454 | 39747 ft | 384 kts | 248° |
| 2026-05-05 18:12 | 33.70665 | -95.22034 | 39749 ft | 384 kts | 248° |
| 2026-05-05 18:13 | 33.68024 | -95.27610 | 39741 ft | 383 kts | 247° |
| 2026-05-05 18:13 | 33.65387 | -95.33164 | 39739 ft | 383 kts | 248° |
| 2026-05-05 18:14 | 33.62736 | -95.38743 | 39743 ft | 384 kts | 248° |
| 2026-05-05 18:14 | 33.60082 | -95.44316 | 39739 ft | 385 kts | 248° |
| 2026-05-05 18:15 | 33.57432 | -95.49883 | 39734 ft | 383 kts | 248° |
| 2026-05-05 18:15 | 33.54782 | -95.55428 | 39742 ft | 384 kts | 248° |
| 2026-05-05 18:16 | 33.52140 | -95.60959 | 39743 ft | 383 kts | 247° |
| 2026-05-05 18:16 | 33.49459 | -95.66547 | 39742 ft | 383 kts | 247° |
| 2026-05-05 18:17 | 33.46788 | -95.72116 | 39741 ft | 384 kts | 247° |
| 2026-05-05 18:17 | 33.44128 | -95.77650 | 39738 ft | 384 kts | 247° |
| 2026-05-05 18:18 | 33.41456 | -95.83204 | 39740 ft | 384 kts | 247° |
| 2026-05-05 18:18 | 33.38792 | -95.88731 | 39739 ft | 384 kts | 247° |
| 2026-05-05 18:19 | 33.36114 | -95.94280 | 39744 ft | 384 kts | 246° |
| 2026-05-05 18:19 | 33.33453 | -95.99782 | 39742 ft | 383 kts | 246° |
| 2026-05-05 18:20 | 33.30797 | -96.05273 | 39744 ft | 383 kts | 247° |
| 2026-05-05 18:20 | 33.28101 | -96.10829 | 39746 ft | 383 kts | 246° |
| 2026-05-05 18:21 | 33.25444 | -96.16293 | 39746 ft | 383 kts | 247° |
| 2026-05-05 18:21 | 33.22757 | -96.21823 | 39748 ft | 382 kts | 246° |
| 2026-05-05 18:22 | 33.20095 | -96.27285 | 39739 ft | 383 kts | 246° |
| 2026-05-05 18:22 | 33.17417 | -96.32774 | 39733 ft | 382 kts | 247° |
| 2026-05-05 18:23 | 33.14733 | -96.38265 | 39739 ft | 383 kts | 246° |
| 2026-05-05 18:23 | 33.12047 | -96.43758 | 39736 ft | 382 kts | 246° |
| 2026-05-05 18:24 | 33.09378 | -96.49199 | 39735 ft | 382 kts | 247° |
| 2026-05-05 18:24 | 33.06682 | -96.54688 | 39735 ft | 382 kts | 247° |
| 2026-05-05 18:25 | 33.03999 | -96.60139 | 39740 ft | 382 kts | 246° |
| 2026-05-05 18:25 | 33.01314 | -96.65590 | 39750 ft | 382 kts | 246° |
| 2026-05-05 18:26 | 32.98601 | -96.71084 | 39748 ft | 382 kts | 246° |
| 2026-05-05 18:26 | 32.95900 | -96.76547 | 39747 ft | 382 kts | 245° |
| 2026-05-05 18:27 | 32.92681 | -96.81712 | 39745 ft | 399 kts | 233° |
| 2026-05-05 18:27 | 32.87997 | -96.85559 | 39752 ft | 423 kts | 216° |
| 2026-05-05 18:27 | 32.85144 | -96.86794 | 39748 ft | 437 kts | 206° |
| 2026-05-05 18:28 | 32.78879 | -96.87347 | 39753 ft | 473 kts | 185° |
| 2026-05-05 18:28 | 32.75551 | -96.86596 | 39756 ft | 488 kts | 180° |
| 2026-05-05 18:28 | 32.72201 | -96.85654 | 39752 ft | 491 kts | 178° |
| 2026-05-05 18:29 | 32.65528 | -96.83690 | 39752 ft | 491 kts | 178° |
| 2026-05-05 18:29 | 32.58825 | -96.81750 | 39756 ft | 490 kts | 178° |
| 2026-05-05 18:30 | 32.52134 | -96.79847 | 39756 ft | 491 kts | 178° |
| 2026-05-05 18:30 | 32.45421 | -96.77945 | 39759 ft | 491 kts | 179° |
| 2026-05-05 18:31 | 32.38748 | -96.76043 | 39761 ft | 492 kts | 178° |
| 2026-05-05 18:31 | 32.32088 | -96.74149 | 39763 ft | 492 kts | 178° |
| 2026-05-05 18:32 | 32.25391 | -96.72241 | 39759 ft | 492 kts | 178° |
| 2026-05-05 18:32 | 32.18708 | -96.70342 | 39767 ft | 494 kts | 178° |
| 2026-05-05 18:33 | 32.15332 | -96.69384 | 39482 ft | 495 kts | 178° |
| 2026-05-05 18:33 | 32.11974 | -96.68428 | 39166 ft | 492 kts | 178° |
| 2026-05-05 18:33 | 32.08653 | -96.67481 | 38841 ft | 489 kts | 178° |
| 2026-05-05 18:33 | 32.05348 | -96.66542 | 38550 ft | 488 kts | 178° |
| 2026-05-05 18:34 | 32.02003 | -96.65597 | 38252 ft | 486 kts | 178° |
| 2026-05-05 18:34 | 31.98717 | -96.64666 | 37948 ft | 485 kts | 178° |
| 2026-05-05 18:34 | 31.95416 | -96.63735 | 37650 ft | 487 kts | 178° |
| 2026-05-05 18:34 | 31.92082 | -96.62794 | 37322 ft | 486 kts | 178° |
| 2026-05-05 18:35 | 31.88868 | -96.61886 | 36986 ft | 487 kts | 178° |
| 2026-05-05 18:35 | 31.85426 | -96.60915 | 36555 ft | 488 kts | 178° |
| 2026-05-05 18:35 | 31.82140 | -96.59988 | 36101 ft | 487 kts | 178° |
| 2026-05-05 18:35 | 31.78822 | -96.59050 | 35593 ft | 487 kts | 178° |
| 2026-05-05 18:36 | 31.75527 | -96.58121 | 35012 ft | 487 kts | 178° |
| 2026-05-05 18:36 | 31.72243 | -96.57194 | 34418 ft | 487 kts | 178° |
| 2026-05-05 18:36 | 31.68919 | -96.56256 | 33795 ft | 486 kts | 177° |
| 2026-05-05 18:36 | 31.65620 | -96.55323 | 33176 ft | 486 kts | 178° |
| 2026-05-05 18:37 | 31.62346 | -96.54401 | 32591 ft | 486 kts | 178° |
| 2026-05-05 18:37 | 31.59060 | -96.53478 | 31984 ft | 487 kts | 176° |
| 2026-05-05 18:37 | 31.55773 | -96.52422 | 31338 ft | 493 kts | 173° |
| 2026-05-05 18:37 | 31.52457 | -96.51138 | 30648 ft | 499 kts | 170° |
| 2026-05-05 18:38 | 31.49214 | -96.49646 | 29951 ft | 505 kts | 166° |
| 2026-05-05 18:38 | 31.45984 | -96.47905 | 29219 ft | 512 kts | 162° |
| 2026-05-05 18:38 | 31.42793 | -96.45968 | 28502 ft | 516 kts | 160° |
| 2026-05-05 18:38 | 31.39634 | -96.44003 | 27810 ft | 517 kts | 160° |
| 2026-05-05 18:39 | 31.36456 | -96.42021 | 27261 ft | 514 kts | 160° |
| 2026-05-05 18:39 | 31.33305 | -96.40063 | 26784 ft | 509 kts | 160° |
| 2026-05-05 18:39 | 31.30152 | -96.38121 | 26217 ft | 507 kts | 160° |
| 2026-05-05 18:39 | 31.27066 | -96.36236 | 25697 ft | 503 kts | 160° |
| 2026-05-05 18:40 | 31.23957 | -96.34344 | 25203 ft | 498 kts | 161° |
| 2026-05-05 18:40 | 31.20847 | -96.32456 | 24736 ft | 493 kts | 161° |
| 2026-05-05 18:40 | 31.17825 | -96.30619 | 24465 ft | 483 kts | 161° |
| 2026-05-05 18:40 | 31.14857 | -96.28805 | 24288 ft | 471 kts | 161° |
| 2026-05-05 18:41 | 31.11973 | -96.27045 | 24128 ft | 459 kts | 161° |
| 2026-05-05 18:41 | 31.09155 | -96.25326 | 23987 ft | 447 kts | 161° |
| 2026-05-05 18:41 | 31.06433 | -96.23669 | 23890 ft | 435 kts | 162° |
| 2026-05-05 18:41 | 31.03744 | -96.22034 | 23811 ft | 423 kts | 162° |
| 2026-05-05 18:42 | 31.01184 | -96.20477 | 23802 ft | 408 kts | 162° |
| 2026-05-05 18:42 | 30.98669 | -96.18926 | 23666 ft | 400 kts | 161° |
| 2026-05-05 18:42 | 30.96207 | -96.17348 | 23268 ft | 400 kts | 161° |
| 2026-05-05 18:42 | 30.93768 | -96.15765 | 22897 ft | 398 kts | 160° |
| 2026-05-05 18:43 | 30.91360 | -96.14198 | 22567 ft | 396 kts | 159° |
| 2026-05-05 18:43 | 30.89119 | -96.12170 | 22271 ft | 420 kts | 140° |
| 2026-05-05 18:43 | 30.87190 | -96.09413 | 22055 ft | 443 kts | 133° |
| 2026-05-05 18:43 | 30.85352 | -96.06473 | 21835 ft | 445 kts | 131° |
| 2026-05-05 18:44 | 30.83518 | -96.03548 | 21629 ft | 443 kts | 132° |
| 2026-05-05 18:44 | 30.81648 | -96.00647 | 21423 ft | 440 kts | 133° |
| 2026-05-05 18:44 | 30.79794 | -95.97850 | 21223 ft | 438 kts | 133° |
| 2026-05-05 18:44 | 30.77903 | -95.95046 | 21021 ft | 437 kts | 134° |
| 2026-05-05 18:45 | 30.75994 | -95.92242 | 20818 ft | 434 kts | 133° |
| 2026-05-05 18:45 | 30.74124 | -95.89506 | 20617 ft | 432 kts | 133° |
| 2026-05-05 18:45 | 30.72243 | -95.86768 | 20419 ft | 431 kts | 133° |
| 2026-05-05 18:45 | 30.70378 | -95.84053 | 20217 ft | 429 kts | 133° |
| 2026-05-05 18:46 | 30.68529 | -95.81361 | 20017 ft | 427 kts | 133° |
| 2026-05-05 18:46 | 30.66661 | -95.78650 | 19783 ft | 424 kts | 134° |
| 2026-05-05 18:46 | 30.64821 | -95.75981 | 19494 ft | 422 kts | 133° |
| 2026-05-05 18:46 | 30.62994 | -95.73336 | 19184 ft | 419 kts | 133° |
| 2026-05-05 18:47 | 30.61168 | -95.70687 | 18856 ft | 417 kts | 133° |
| 2026-05-05 18:47 | 30.59345 | -95.68047 | 18526 ft | 412 kts | 133° |
| 2026-05-05 18:47 | 30.57544 | -95.65442 | 18213 ft | 409 kts | 133° |
| 2026-05-05 18:47 | 30.55765 | -95.62877 | 17890 ft | 406 kts | 133° |
| 2026-05-05 18:48 | 30.54007 | -95.60342 | 17560 ft | 403 kts | 133° |
| 2026-05-05 18:48 | 30.52247 | -95.57803 | 17227 ft | 400 kts | 133° |
| 2026-05-05 18:48 | 30.50500 | -95.55280 | 16889 ft | 397 kts | 133° |
| 2026-05-05 18:48 | 30.48778 | -95.52792 | 16548 ft | 395 kts | 133° |
| 2026-05-05 18:49 | 30.47071 | -95.50327 | 16216 ft | 391 kts | 133° |
| 2026-05-05 18:49 | 30.45359 | -95.47863 | 15885 ft | 388 kts | 132° |
| 2026-05-05 18:49 | 30.43682 | -95.45451 | 15540 ft | 385 kts | 133° |
| 2026-05-05 18:49 | 30.41981 | -95.43002 | 15201 ft | 382 kts | 133° |
| 2026-05-05 18:50 | 30.40320 | -95.40615 | 14864 ft | 379 kts | 132° |
| 2026-05-05 18:50 | 30.38682 | -95.38266 | 14525 ft | 377 kts | 132° |
| 2026-05-05 18:50 | 30.37024 | -95.35883 | 14182 ft | 373 kts | 132° |
| 2026-05-05 18:50 | 30.35414 | -95.33566 | 13847 ft | 369 kts | 132° |
| 2026-05-05 18:51 | 30.33789 | -95.31238 | 13508 ft | 365 kts | 132° |
| 2026-05-05 18:51 | 30.32205 | -95.28972 | 13173 ft | 361 kts | 133° |
| 2026-05-05 18:51 | 30.30623 | -95.26714 | 12848 ft | 357 kts | 132° |
| 2026-05-05 18:51 | 30.29072 | -95.24496 | 12514 ft | 353 kts | 132° |
| 2026-05-05 18:52 | 30.27531 | -95.22291 | 12183 ft | 350 kts | 131° |
| 2026-05-05 18:52 | 30.26000 | -95.20099 | 11849 ft | 347 kts | 131° |
| 2026-05-05 18:52 | 30.24480 | -95.17918 | 11510 ft | 343 kts | 131° |
| 2026-05-05 18:52 | 30.22997 | -95.15797 | 11178 ft | 341 kts | 131° |
| 2026-05-05 18:53 | 30.21494 | -95.13652 | 10850 ft | 338 kts | 131° |
| 2026-05-05 18:53 | 30.20027 | -95.11558 | 10519 ft | 335 kts | 130° |
| 2026-05-05 18:53 | 30.18558 | -95.09457 | 10189 ft | 333 kts | 130° |
| 2026-05-05 18:53 | 30.17111 | -95.07390 | 10035 ft | 324 kts | 130° |
| 2026-05-05 18:54 | 30.16043 | -95.05860 | 10010 ft | 313 kts | 130° |
| 2026-05-05 18:54 | 30.14451 | -95.03582 | 9965 ft | 297 kts | 130° |
| 2026-05-05 18:54 | 30.13161 | -95.01743 | 9834 ft | 294 kts | 130° |
| 2026-05-05 18:54 | 30.11866 | -94.99899 | 9529 ft | 294 kts | 130° |
| 2026-05-05 18:55 | 30.10557 | -94.98042 | 9228 ft | 294 kts | 130° |
| 2026-05-05 18:55 | 30.09266 | -94.96197 | 8951 ft | 293 kts | 130° |
| 2026-05-05 18:55 | 30.07979 | -94.94353 | 8688 ft | 292 kts | 130° |
| 2026-05-05 18:55 | 30.06702 | -94.92535 | 8429 ft | 290 kts | 131° |
| 2026-05-05 18:56 | 30.05427 | -94.90717 | 8174 ft | 289 kts | 132° |
| 2026-05-05 18:56 | 30.04163 | -94.88927 | 7945 ft | 286 kts | 132° |
| 2026-05-05 18:56 | 30.02908 | -94.87161 | 7937 ft | 274 kts | 131° |
| 2026-05-05 18:56 | 30.01731 | -94.85493 | 7932 ft | 264 kts | 132° |
| 2026-05-05 18:57 | 30.00562 | -94.83911 | 7903 ft | 251 kts | 143° |
| 2026-05-05 18:57 | 29.99036 | -94.83146 | 7834 ft | 233 kts | 183° |
| 2026-05-05 18:57 | 29.97513 | -94.83643 | 7605 ft | 229 kts | 221° |
| 2026-05-05 18:57 | 29.96662 | -94.85156 | 7336 ft | 228 kts | 260° |
| 2026-05-05 18:58 | 29.96810 | -94.86970 | 7091 ft | 232 kts | 283° |
| 2026-05-05 18:58 | 29.97319 | -94.88731 | 6955 ft | 228 kts | 285° |
| 2026-05-05 18:58 | 29.97862 | -94.90440 | 6950 ft | 227 kts | 286° |
| 2026-05-05 18:58 | 29.98423 | -94.92166 | 6950 ft | 228 kts | 286° |
| 2026-05-05 18:59 | 29.98973 | -94.93874 | 6853 ft | 226 kts | 285° |
| 2026-05-05 18:59 | 29.99521 | -94.95569 | 6603 ft | 227 kts | 285° |
| 2026-05-05 18:59 | 30.00074 | -94.97287 | 6374 ft | 227 kts | 285° |
| 2026-05-05 18:59 | 30.00517 | -94.99041 | 6166 ft | 224 kts | 275° |
| 2026-05-05 19:00 | 30.00693 | -95.00801 | 5990 ft | 219 kts | 270° |
| 2026-05-05 19:00 | 30.00768 | -95.02540 | 5831 ft | 215 kts | 268° |
| 2026-05-05 19:00 | 30.00801 | -95.04238 | 5654 ft | 211 kts | 267° |
| 2026-05-05 19:00 | 30.00809 | -95.05921 | 5459 ft | 207 kts | 266° |
| 2026-05-05 19:01 | 30.00806 | -95.07573 | 5145 ft | 202 kts | 265° |
| 2026-05-05 19:01 | 30.00798 | -95.09179 | 4838 ft | 199 kts | 264° |
| 2026-05-05 19:01 | 30.00790 | -95.10757 | 4533 ft | 195 kts | 264° |
| 2026-05-05 19:01 | 30.00777 | -95.12301 | 4246 ft | 191 kts | 263° |
| 2026-05-05 19:02 | 30.00760 | -95.13805 | 3962 ft | 183 kts | 263° |
| 2026-05-05 19:02 | 30.00752 | -95.15273 | 3665 ft | 179 kts | 264° |
| 2026-05-05 19:02 | 30.00747 | -95.16675 | 3420 ft | 174 kts | 264° |
| 2026-05-05 19:02 | 30.00748 | -95.18048 | 3198 ft | 168 kts | 263° |
| 2026-05-05 19:03 | 30.00743 | -95.19385 | 2916 ft | 164 kts | 263° |
| 2026-05-05 19:03 | 30.00740 | -95.20682 | 2645 ft | 160 kts | 264° |
| 2026-05-05 19:03 | 30.00751 | -95.21970 | 2307 ft | 163 kts | 265° |
| 2026-05-05 19:03 | 30.00789 | -95.23287 | 1971 ft | 164 kts | 266° |
| 2026-05-05 19:04 | 30.00837 | -95.24590 | 1651 ft | 164 kts | 267° |
| 2026-05-05 19:04 | 30.00888 | -95.25913 | 1331 ft | 164 kts | 268° |
| 2026-05-05 19:04 | 30.00927 | -95.27193 | 1111 ft | 157 kts | 265° |
| 2026-05-05 19:04 | 30.00928 | -95.28445 | 901 ft | 152 kts | 265° |
| 2026-05-05 19:05 | 30.00869 | -95.29623 | 695 ft | 144 kts | 259° |
| 2026-05-05 19:05 | 30.00786 | -95.30759 | 512 ft | 137 kts | 261° |
| 2026-05-05 19:05 | 30.00731 | -95.31854 | 344 ft | 138 kts | 264° |
| 2026-05-05 19:05 | 30.00721 | -95.32972 | 165 ft | 138 kts | 266° |
| 2026-05-05 19:06 | 30.00732 | -95.34036 | 114 ft | 123 kts | 267° |
| 2026-05-05 19:06 | 30.00715 | -95.34773 | 114 ft | 56 kts | 272° |
| 2026-05-05 19:06 | 30.00720 | -95.35106 | 114 ft | 38 kts | 270° |
| 2026-05-05 19:06 | 30.00687 | -95.35379 | 114 ft | 24 kts | 244° |
| 2026-05-05 19:07 | 30.00626 | -95.35503 | 114 ft | 16 kts | 240° |
| 2026-05-05 19:07 | 30.00561 | -95.35613 | 114 ft | 16 kts | 220° |
| 2026-05-05 19:07 | 30.00450 | -95.35652 | 114 ft | 16 kts | 182° |
| 2026-05-05 19:07 | 30.00337 | -95.35656 | 114 ft | 15 kts | 181° |
| 2026-05-05 19:08 | 30.00231 | -95.35633 | 114 ft | 15 kts | 152° |
| 2026-05-05 19:08 | 30.00151 | -95.35568 | 120 ft | 11 kts | 142° |
| 2026-05-05 19:08 | 30.00060 | -95.35506 | 114 ft | 16 kts | 158° |
| 2026-05-05 19:08 | 29.99943 | -95.35485 | 114 ft | 17 kts | 178° |
| 2026-05-05 19:09 | 29.99823 | -95.35482 | 114 ft | 17 kts | 180° |
| 2026-05-05 19:09 | 29.99700 | -95.35484 | 114 ft | 17 kts | 181° |
| 2026-05-05 19:09 | 29.99578 | -95.35485 | 114 ft | 17 kts | 181° |
| 2026-05-05 19:09 | 29.99457 | -95.35486 | 114 ft | 17 kts | 180° |
| 2026-05-05 19:10 | 29.99335 | -95.35487 | 114 ft | 17 kts | 180° |
| 2026-05-05 19:10 | 29.99211 | -95.35486 | 114 ft | 17 kts | 177° |
| 2026-05-05 19:10 | 29.99086 | -95.35485 | 114 ft | 17 kts | 182° |
| 2026-05-05 19:10 | 29.98993 | -95.35474 | 114 ft | 5 kts | 120° |
| 2026-05-05 19:11 | 29.98994 | -95.35420 | 114 ft | 6 kts | 94° |
| 2026-05-05 19:11 | 29.98993 | -95.35359 | 114 ft | 8 kts | 91° |
| 2026-05-05 19:11 | 29.98996 | -95.35285 | 114 ft | 10 kts | 88° |
| 2026-05-05 19:11 | 29.98996 | -95.35201 | 114 ft | 11 kts | 91° |
| 2026-05-05 19:12 | 29.98994 | -95.35104 | 114 ft | 12 kts | 90° |
| 2026-05-05 19:12 | 29.98994 | -95.35001 | 114 ft | 13 kts | 90° |
| 2026-05-05 19:12 | 29.98994 | -95.34892 | 114 ft | 14 kts | 89° |
| 2026-05-05 19:12 | 29.98996 | -95.34778 | 114 ft | 14 kts | 89° |
| 2026-05-05 19:13 | 29.98996 | -95.34656 | 114 ft | 15 kts | 90° |
| 2026-05-05 19:13 | 29.98996 | -95.34531 | 114 ft | 16 kts | 90° |
| 2026-05-05 19:13 | 29.98996 | -95.34403 | 114 ft | 14 kts | 83° |
| 2026-05-05 19:13 | 29.99045 | -95.34342 | 114 ft | 9 kts | 18° |
| 2026-05-05 19:14 | 29.99087 | -95.34302 | 114 ft | 7 kts | 71° |
| 2026-05-05 19:14 | 29.99091 | -95.34251 | 114 ft | 7 kts | 88° |
| 2026-05-05 19:14 | 29.99091 | -95.34184 | 114 ft | 9 kts | 90° |
| 2026-05-05 19:14 | 29.99090 | -95.34099 | 114 ft | 11 kts | 92° |
| 2026-05-05 19:15 | 29.99090 | -95.34000 | 114 ft | 13 kts | 89° |
| 2026-05-05 19:15 | 29.99091 | -95.33887 | 114 ft | 14 kts | 90° |
| 2026-05-05 19:15 | 29.99088 | -95.33763 | 114 ft | 15 kts | 96° |
| 2026-05-05 19:15 | 29.99038 | -95.33713 | 114 ft | 10 kts | 188° |
| 2026-05-05 19:16 | 29.98972 | -95.33717 | 114 ft | 5 kts | 177° |
| 2026-05-05 19:16 | 29.98946 | -95.33710 | 114 ft | 3 kts | 148° |
| 2026-05-05 19:16 | 29.98931 | -95.33681 | 114 ft | 5 kts | 104° |
| 2026-05-05 19:16 | 29.98928 | -95.33627 | 114 ft | 7 kts | 90° |
| 2026-05-05 19:17 | 29.98928 | -95.33554 | 114 ft | 10 kts | 90° |
| 2026-05-05 19:17 | 29.98928 | -95.33465 | 114 ft | 12 kts | 90° |
| 2026-05-05 19:17 | 29.98909 | -95.33427 | 114 ft | 1 kts | 172° |
| 2026-05-05 19:17 | 29.98889 | -95.33424 | 114 ft | 4 kts | 175° |
| 2026-05-05 19:18 | 29.98870 | -95.33424 | 114 ft | 3 kts | 180° |
| 2026-05-05 19:18 | 29.98856 | -95.33424 | 114 ft | 2 kts | 182° |
| 2026-05-05 19:18 | 29.98838 | -95.33424 | 113 ft | 0 kts | 181° |
| 2026-05-05 19:18 | 29.98831 | -95.33424 | 114 ft | 0 kts | 180° |
| 2026-05-05 19:19 | 29.98825 | -95.33424 | 114 ft | 0 kts | 178° |